Observation data for Tahoka on 06/25/2019      Previous  Date  Next       Current Mesonet Observations  Soil Data  Daily Summary Page  Observations in Plain Language
KTAS 250500Z 15013KT 23/18 A2999 RMK A01 T02270184  RH  077%=      5-min Rain = 0
KTAS 250501Z 15012KT 23/18 A2999 RMK A01 T02260183  RH  076%=      5-min Rain = 0
KTAS 250502Z 14012KT 23/18 A2999 RMK A01 T02260182  RH  076%=      5-min Rain = 0
KTAS 250503Z 15013KT 23/18 A2999 RMK A01 T02260176  RH  074%=      5-min Rain = 0
KTAS 250504Z 15012KT 23/17 A2999 RMK A01 T02250173  RH  072%=      5-min Rain = 0
KTAS 250505Z 15012KT 23/17 A2999 RMK A01 T02250174  RH  073%=      5-min Rain = 0
KTAS 250506Z 15011KT 22/17 A2999 RMK A01 T02240173  RH  073%=      5-min Rain = 0
KTAS 250507Z 15011KT 22/17 A2999 RMK A01 T02230172  RH  072%=      5-min Rain = 0
KTAS 250508Z 15011KT 22/17 A2999 RMK A01 T02220171  RH  072%=      5-min Rain = 0
KTAS 250509Z 15011KT 22/17 A2999 RMK A01 T02220171  RH  073%=      5-min Rain = 0
KTAS 250510Z 15010KT 22/17 A2998 RMK A01 T02210169  RH  072%=      5-min Rain = 0
KTAS 250511Z 16009KT 22/17 A2998 RMK A01 T02210169  RH  072%=      5-min Rain = 0
KTAS 250512Z 16011G16KT 22/17 A2998 RMK A01 T02200169  RH  073%=      5-min Rain = 0
KTAS 250513Z 16011KT 22/17 A2998 RMK A01 T02200169  RH  073%=      5-min Rain = 0
KTAS 250514Z 16010KT 22/17 A2998 RMK A01 T02190169  RH  073%=      5-min Rain = 0
KTAS 250515Z 16012KT 22/17 A2998 RMK A01 T02180170  RH  074%=      5-min Rain = 0
KTAS 250516Z 16013KT 22/17 A2998 RMK A01 T02180170  RH  074%=      5-min Rain = 0
KTAS 250517Z 16012KT 22/17 A2998 RMK A01 T02180170  RH  074%=      5-min Rain = 0
KTAS 250518Z 16014KT 22/17 A2998 RMK A01 T02180170  RH  074%=      5-min Rain = 0
KTAS 250519Z 16013KT 22/17 A2998 RMK A01 T02180170  RH  074%=      5-min Rain = 0
KTAS 250520Z 16012KT 22/17 A2998 RMK A01 T02180170  RH  074%=      5-min Rain = 0
KTAS 250521Z 16012KT 22/17 A2998 RMK A01 T02170170  RH  075%=      5-min Rain = 0
KTAS 250522Z 16012KT 22/17 A2998 RMK A01 T02160171  RH  075%=      5-min Rain = 0
KTAS 250523Z 15012KT 22/17 A2998 RMK A01 T02160170  RH  075%=      5-min Rain = 0
KTAS 250524Z 16012KT 22/17 A2998 RMK A01 T02150170  RH  075%=      5-min Rain = 0
KTAS 250525Z 15011KT 22/17 A2998 RMK A01 T02150170  RH  075%=      5-min Rain = 0
KTAS 250526Z 15010KT 22/17 A2998 RMK A01 T02150171  RH  076%=      5-min Rain = 0
KTAS 250527Z 15010KT 21/17 A2998 RMK A01 T02140171  RH  076%=      5-min Rain = 0
KTAS 250528Z 15010KT 21/17 A2998 RMK A01 T02140171  RH  077%=      5-min Rain = 0
KTAS 250529Z 15011KT 21/17 A2998 RMK A01 T02140170  RH  076%=      5-min Rain = 0
KTAS 250530Z 15010KT 21/17 A2997 RMK A01 T02140170  RH  076%=      5-min Rain = 0
KTAS 250531Z 15010KT 21/17 A2997 RMK A01 T02140171  RH  077%=      5-min Rain = 0
KTAS 250532Z 15010KT 21/17 A2997 RMK A01 T02130170  RH  076%=      5-min Rain = 0
KTAS 250533Z 15011KT 21/17 A2997 RMK A01 T02130170  RH  076%=      5-min Rain = 0
KTAS 250534Z 15010KT 21/17 A2997 RMK A01 T02130169  RH  076%=      5-min Rain = 0
KTAS 250535Z 15010KT 21/17 A2997 RMK A01 T02130170  RH  076%=      5-min Rain = 0
KTAS 250536Z 14010KT 21/17 A2997 RMK A01 T02120169  RH  076%=      5-min Rain = 0
KTAS 250537Z 14010KT 21/17 A2997 RMK A01 T02120169  RH  077%=      5-min Rain = 0
KTAS 250538Z 14010KT 21/17 A2997 RMK A01 T02110170  RH  077%=      5-min Rain = 0
KTAS 250539Z 14010KT 21/17 A2997 RMK A01 T02110169  RH  077%=      5-min Rain = 0
KTAS 250540Z 14007KT 21/17 A2997 RMK A01 T02100169  RH  077%=      5-min Rain = 0
KTAS 250541Z 14009KT 21/17 A2997 RMK A01 T02100169  RH  077%=      5-min Rain = 0
KTAS 250542Z 14009KT 21/17 A2997 RMK A01 T02100168  RH  077%=      5-min Rain = 0
KTAS 250543Z 14008KT 21/17 A2997 RMK A01 T02100168  RH  077%=      5-min Rain = 0
KTAS 250544Z 14007KT 21/17 A2997 RMK A01 T02090168  RH  077%=      5-min Rain = 0
KTAS 250545Z 14007KT 21/17 A2997 RMK A01 T02080167  RH  077%=      5-min Rain = 0
KTAS 250546Z 15008KT 21/17 A2997 RMK A01 T02080166  RH  077%=      5-min Rain = 0
KTAS 250547Z 15009KT 21/17 A2997 RMK A01 T02070165  RH  077%=      5-min Rain = 0
KTAS 250548Z 15010KT 21/16 A2997 RMK A01 T02070162  RH  075%=      5-min Rain = 0
KTAS 250549Z 15009KT 21/16 A2997 RMK A01 T02080160  RH  074%=      5-min Rain = 0
KTAS 250550Z 15009KT 21/16 A2997 RMK A01 T02080161  RH  074%=      5-min Rain = 0
KTAS 250551Z 16009KT 21/16 A2997 RMK A01 T02080160  RH  074%=      5-min Rain = 0
KTAS 250552Z 15008KT 21/16 A2997 RMK A01 T02080158  RH  073%=      5-min Rain = 0
KTAS 250553Z 16008KT 21/16 A2996 RMK A01 T02070159  RH  074%=      5-min Rain = 0
KTAS 250554Z 16010KT 21/16 A2996 RMK A01 T02070158  RH  073%=      5-min Rain = 0
KTAS 250555Z 16011KT 21/15 A2996 RMK A01 T02060151  RH  071%=      5-min Rain = 0
KTAS 250556Z 16011KT 21/15 A2996 RMK A01 T02070150  RH  070%=      5-min Rain = 0
KTAS 250557Z 16011KT 21/15 A2996 RMK A01 T02070149  RH  069%=      5-min Rain = 0
KTAS 250558Z 16011KT 21/15 A2996 RMK A01 T02070149  RH  069%=      5-min Rain = 0
KTAS 250559Z 16013KT 21/15 A2996 RMK A01 T02070148  RH  069%=      5-min Rain = 0
KTAS 250600Z 16012G17KT 21/15 A2996 RMK A01 T02060146  RH  068%=      5-min Rain = 0
KTAS 250601Z 16012KT 21/15 A2996 RMK A01 T02060146  RH  068%=      5-min Rain = 0
KTAS 250602Z 16010KT 21/15 A2996 RMK A01 T02060146  RH  069%=      5-min Rain = 0
KTAS 250603Z 16013KT 21/15 A2996 RMK A01 T02050146  RH  069%=      5-min Rain = 0
KTAS 250604Z 16011KT 21/14 A2996 RMK A01 T02050144  RH  068%=      5-min Rain = 0
KTAS 250605Z 16012KT 21/15 A2996 RMK A01 T02050145  RH  068%=      5-min Rain = 0
KTAS 250606Z 16012KT 21/15 A2996 RMK A01 T02050146  RH  069%=      5-min Rain = 0
KTAS 250607Z 16011KT 20/15 A2996 RMK A01 T02040146  RH  069%=      5-min Rain = 0
KTAS 250608Z 16011KT 20/15 A2996 RMK A01 T02030146  RH  069%=      5-min Rain = 0
KTAS 250609Z 17011KT 20/15 A2996 RMK A01 T02030146  RH  070%=      5-min Rain = 0
KTAS 250610Z 16012KT 20/14 A2996 RMK A01 T02030144  RH  069%=      5-min Rain = 0
KTAS 250611Z 16011KT 20/14 A2996 RMK A01 T02030143  RH  068%=      5-min Rain = 0
KTAS 250612Z 16010KT 20/14 A2996 RMK A01 T02030144  RH  069%=      5-min Rain = 0
KTAS 250613Z 16011KT 20/15 A2996 RMK A01 T02030145  RH  069%=      5-min Rain = 0
KTAS 250614Z 16011KT 20/15 A2996 RMK A01 T02020145  RH  070%=      5-min Rain = 0
KTAS 250615Z 16010KT 20/15 A2996 RMK A01 T02010145  RH  070%=      5-min Rain = 0
KTAS 250616Z 17011KT 20/14 A2996 RMK A01 T02010144  RH  070%=      5-min Rain = 0
KTAS 250617Z 16010KT 20/15 A2996 RMK A01 T02000145  RH  070%=      5-min Rain = 0
KTAS 250618Z 17009KT 20/15 A2996 RMK A01 T02000145  RH  071%=      5-min Rain = 0
KTAS 250619Z 17009KT 20/15 A2996 RMK A01 T01990146  RH  071%=      5-min Rain = 0
KTAS 250620Z 17009KT 20/14 A2996 RMK A01 T01980144  RH  071%=      5-min Rain = 0
KTAS 250621Z 17008KT 20/15 A2996 RMK A01 T01980145  RH  072%=      5-min Rain = 0
KTAS 250622Z 17009KT 20/15 A2996 RMK A01 T01970147  RH  073%=      5-min Rain = 0
KTAS 250623Z 17009KT 20/15 A2996 RMK A01 T01970148  RH  073%=      5-min Rain = 0
KTAS 250624Z 17008KT 20/15 A2996 RMK A01 T01960148  RH  074%=      5-min Rain = 0
KTAS 250625Z 17008KT 20/15 A2996 RMK A01 T01960148  RH  074%=      5-min Rain = 0
KTAS 250626Z 17009KT 20/15 A2996 RMK A01 T01950147  RH  074%=      5-min Rain = 0
KTAS 250627Z 17009KT 20/15 A2996 RMK A01 T01950146  RH  074%=      5-min Rain = 0
KTAS 250628Z 17010KT 20/15 A2996 RMK A01 T01950146  RH  073%=      5-min Rain = 0
KTAS 250629Z 17010KT 20/15 A2996 RMK A01 T01950145  RH  073%=      5-min Rain = 0
KTAS 250630Z 17009KT 20/15 A2996 RMK A01 T01950145  RH  073%=      5-min Rain = 0
KTAS 250631Z 17009KT 20/14 A2996 RMK A01 T01950144  RH  072%=      5-min Rain = 0
KTAS 250632Z 17010KT 20/14 A2996 RMK A01 T01950144  RH  072%=      5-min Rain = 0
KTAS 250633Z 17010KT 20/14 A2996 RMK A01 T01950143  RH  072%=      5-min Rain = 0
KTAS 250634Z 17009KT 20/14 A2996 RMK A01 T01950143  RH  072%=      5-min Rain = 0
KTAS 250635Z 17009KT 20/14 A2996 RMK A01 T01950144  RH  072%=      5-min Rain = 0
KTAS 250636Z 17009KT 20/14 A2996 RMK A01 T01950143  RH  072%=      5-min Rain = 0
KTAS 250637Z 17009KT 19/14 A2996 RMK A01 T01940143  RH  072%=      5-min Rain = 0
KTAS 250638Z 17010KT 19/14 A2996 RMK A01 T01940142  RH  072%=      5-min Rain = 0
KTAS 250639Z 17009KT 20/14 A2996 RMK A01 T01950142  RH  072%=      5-min Rain = 0
KTAS 250640Z 17009KT 19/14 A2996 RMK A01 T01940143  RH  072%=      5-min Rain = 0
KTAS 250641Z 17009KT 19/14 A2996 RMK A01 T01930143  RH  072%=      5-min Rain = 0
KTAS 250642Z 17009KT 19/14 A2996 RMK A01 T01930142  RH  072%=      5-min Rain = 0
KTAS 250643Z 17009KT 19/14 A2995 RMK A01 T01930142  RH  072%=      5-min Rain = 0
KTAS 250644Z 17009KT 19/14 A2995 RMK A01 T01930142  RH  073%=      5-min Rain = 0
KTAS 250645Z 18009KT 19/14 A2995 RMK A01 T01930142  RH  073%=      5-min Rain = 0
KTAS 250646Z 17008KT 19/14 A2995 RMK A01 T01920142  RH  073%=      5-min Rain = 0
KTAS 250647Z 17009KT 19/14 A2995 RMK A01 T01910142  RH  073%=      5-min Rain = 0
KTAS 250648Z 17009KT 19/14 A2995 RMK A01 T01910142  RH  073%=      5-min Rain = 0
KTAS 250649Z 17009KT 19/14 A2995 RMK A01 T01910142  RH  073%=      5-min Rain = 0
KTAS 250650Z 17009KT 19/14 A2995 RMK A01 T01910142  RH  073%=      5-min Rain = 0
KTAS 250651Z 18008KT 19/14 A2995 RMK A01 T01910142  RH  073%=      5-min Rain = 0
KTAS 250652Z 18009KT 19/14 A2995 RMK A01 T01900141  RH  073%=      5-min Rain = 0
KTAS 250653Z 18009KT 19/14 A2995 RMK A01 T01900142  RH  074%=      5-min Rain = 0
KTAS 250654Z 18009KT 19/14 A2995 RMK A01 T01890142  RH  074%=      5-min Rain = 0
KTAS 250655Z 18009KT 19/14 A2995 RMK A01 T01890142  RH  074%=      5-min Rain = 0
KTAS 250656Z 18009KT 19/14 A2995 RMK A01 T01890141  RH  074%=      5-min Rain = 0
KTAS 250657Z 17008KT 19/14 A2995 RMK A01 T01890142  RH  074%=      5-min Rain = 0
KTAS 250658Z 18009KT 19/14 A2995 RMK A01 T01890142  RH  074%=      5-min Rain = 0
KTAS 250659Z 18009KT 19/14 A2995 RMK A01 T01900141  RH  073%=      5-min Rain = 0
KTAS 250700Z 18008KT 19/14 A2995 RMK A01 T01900142  RH  073%=      5-min Rain = 0
KTAS 250701Z 17008KT 19/14 A2995 RMK A01 T01900141  RH  073%=      5-min Rain = 0
KTAS 250702Z 17007KT 19/14 A2995 RMK A01 T01900142  RH  074%=      5-min Rain = 0
KTAS 250703Z 18007KT 19/14 A2995 RMK A01 T01890143  RH  074%=      5-min Rain = 0
KTAS 250704Z 17007KT 19/14 A2996 RMK A01 T01880143  RH  075%=      5-min Rain = 0
KTAS 250705Z 18007KT 19/14 A2996 RMK A01 T01880143  RH  075%=      5-min Rain = 0
KTAS 250706Z 17008KT 19/14 A2996 RMK A01 T01870143  RH  075%=      5-min Rain = 0
KTAS 250707Z 17008KT 19/14 A2996 RMK A01 T01870143  RH  075%=      5-min Rain = 0
KTAS 250708Z 17007KT 19/14 A2996 RMK A01 T01870143  RH  075%=      5-min Rain = 0
KTAS 250709Z 17008KT 19/14 A2996 RMK A01 T01870142  RH  075%=      5-min Rain = 0
KTAS 250710Z 17007KT 19/14 A2996 RMK A01 T01870142  RH  075%=      5-min Rain = 0
KTAS 250711Z 17007KT 19/14 A2996 RMK A01 T01870142  RH  075%=      5-min Rain = 0
KTAS 250712Z 17006KT 19/14 A2996 RMK A01 T01860143  RH  076%=      5-min Rain = 0
KTAS 250713Z 17007KT 19/14 A2996 RMK A01 T01860143  RH  076%=      5-min Rain = 0
KTAS 250714Z 17007KT 19/14 A2995 RMK A01 T01850142  RH  076%=      5-min Rain = 0
KTAS 250715Z 17007KT 19/14 A2996 RMK A01 T01850142  RH  076%=      5-min Rain = 0
KTAS 250716Z 17007KT 19/14 A2996 RMK A01 T01850142  RH  076%=      5-min Rain = 0
KTAS 250717Z 17007KT 18/14 A2996 RMK A01 T01840143  RH  076%=      5-min Rain = 0
KTAS 250718Z 17007KT 18/14 A2996 RMK A01 T01840142  RH  076%=      5-min Rain = 0
KTAS 250719Z 17007KT 19/14 A2996 RMK A01 T01850142  RH  076%=      5-min Rain = 0
KTAS 250720Z 17007KT 19/14 A2996 RMK A01 T01850143  RH  076%=      5-min Rain = 0
KTAS 250721Z 17007KT 19/14 A2996 RMK A01 T01850143  RH  077%=      5-min Rain = 0
KTAS 250722Z 17007KT 18/14 A2996 RMK A01 T01840143  RH  077%=      5-min Rain = 0
KTAS 250723Z 17007KT 18/14 A2996 RMK A01 T01840143  RH  077%=      5-min Rain = 0
KTAS 250724Z 18007KT 18/14 A2996 RMK A01 T01830143  RH  077%=      5-min Rain = 0
KTAS 250725Z 17006KT 18/14 A2996 RMK A01 T01830143  RH  078%=      5-min Rain = 0
KTAS 250726Z 18006KT 18/14 A2996 RMK A01 T01820143  RH  078%=      5-min Rain = 0
KTAS 250727Z 18006KT 18/14 A2996 RMK A01 T01820144  RH  078%=      5-min Rain = 0
KTAS 250728Z 18006KT 18/14 A2996 RMK A01 T01810144  RH  079%=      5-min Rain = 0
KTAS 250729Z 18007KT 18/14 A2996 RMK A01 T01800143  RH  079%=      5-min Rain = 0
KTAS 250730Z 18007KT 18/14 A2996 RMK A01 T01800143  RH  079%=      5-min Rain = 0
KTAS 250731Z 18008KT 18/14 A2996 RMK A01 T01810143  RH  078%=      5-min Rain = 0
KTAS 250732Z 18008KT 18/14 A2996 RMK A01 T01820143  RH  078%=      5-min Rain = 0
KTAS 250733Z 18009KT 18/14 A2996 RMK A01 T01830143  RH  077%=      5-min Rain = 0
KTAS 250734Z 17010KT 18/14 A2996 RMK A01 T01840143  RH  077%=      5-min Rain = 0
KTAS 250735Z 18010KT 19/14 A2996 RMK A01 T01850143  RH  077%=      5-min Rain = 0
KTAS 250736Z 18009KT 19/14 A2996 RMK A01 T01860143  RH  076%=      5-min Rain = 0
KTAS 250737Z 18010KT 19/14 A2996 RMK A01 T01860144  RH  076%=      5-min Rain = 0
KTAS 250738Z 18009KT 19/14 A2996 RMK A01 T01860144  RH  076%=      5-min Rain = 0
KTAS 250739Z 18010KT 19/14 A2996 RMK A01 T01860143  RH  076%=      5-min Rain = 0
KTAS 250740Z 18009KT 19/14 A2996 RMK A01 T01860143  RH  076%=      5-min Rain = 0
KTAS 250741Z 18010KT 19/14 A2996 RMK A01 T01860143  RH  076%=      5-min Rain = 0
KTAS 250742Z 18009KT 19/14 A2996 RMK A01 T01870142  RH  075%=      5-min Rain = 0
KTAS 250743Z 18010KT 19/14 A2996 RMK A01 T01870143  RH  075%=      5-min Rain = 0
KTAS 250744Z 18009KT 19/14 A2996 RMK A01 T01870143  RH  075%=      5-min Rain = 0
KTAS 250745Z 18009KT 19/14 A2996 RMK A01 T01870143  RH  076%=      5-min Rain = 0
KTAS 250746Z 17009KT 19/14 A2996 RMK A01 T01860143  RH  076%=      5-min Rain = 0
KTAS 250747Z 17009KT 19/14 A2996 RMK A01 T01860143  RH  076%=      5-min Rain = 0
KTAS 250748Z 18009KT 19/14 A2996 RMK A01 T01860143  RH  076%=      5-min Rain = 0
KTAS 250749Z 17009KT 19/14 A2996 RMK A01 T01850143  RH  076%=      5-min Rain = 0
KTAS 250750Z 18009KT 19/14 A2997 RMK A01 T01850143  RH  077%=      5-min Rain = 0
KTAS 250751Z 17008KT 19/14 A2996 RMK A01 T01850143  RH  077%=      5-min Rain = 0
KTAS 250752Z 17009KT 19/14 A2996 RMK A01 T01850143  RH  076%=      5-min Rain = 0
KTAS 250753Z 17010KT 19/14 A2996 RMK A01 T01850142  RH  076%=      5-min Rain = 0
KTAS 250754Z 17009KT 19/14 A2996 RMK A01 T01850142  RH  076%=      5-min Rain = 0
KTAS 250755Z 17010KT 19/14 A2996 RMK A01 T01850142  RH  076%=      5-min Rain = 0
KTAS 250756Z 17010KT 19/14 A2996 RMK A01 T01850142  RH  076%=      5-min Rain = 0
KTAS 250757Z 17010KT 19/14 A2996 RMK A01 T01850142  RH  076%=      5-min Rain = 0
KTAS 250758Z 17009KT 18/14 A2996 RMK A01 T01840142  RH  076%=      5-min Rain = 0
KTAS 250759Z 17009KT 18/14 A2996 RMK A01 T01840142  RH  076%=      5-min Rain = 0
KTAS 250800Z 17009KT 18/14 A2996 RMK A01 T01840141  RH  076%=      5-min Rain = 0
KTAS 250801Z 17009KT 18/14 A2996 RMK A01 T01830141  RH  076%=      5-min Rain = 0
KTAS 250802Z 17009KT 18/14 A2996 RMK A01 T01830141  RH  076%=      5-min Rain = 0
KTAS 250803Z 17009KT 18/14 A2996 RMK A01 T01830141  RH  077%=      5-min Rain = 0
KTAS 250804Z 17009KT 18/14 A2996 RMK A01 T01820142  RH  077%=      5-min Rain = 0
KTAS 250805Z 17009KT 18/14 A2996 RMK A01 T01820141  RH  077%=      5-min Rain = 0
KTAS 250806Z 17009KT 18/14 A2996 RMK A01 T01820141  RH  077%=      5-min Rain = 0
KTAS 250807Z 17009KT 18/14 A2996 RMK A01 T01820141  RH  077%=      5-min Rain = 0
KTAS 250808Z 16009KT 18/14 A2996 RMK A01 T01820141  RH  077%=      5-min Rain = 0
KTAS 250809Z 17009KT 18/14 A2996 RMK A01 T01820141  RH  077%=      5-min Rain = 0
KTAS 250810Z 17009KT 18/14 A2996 RMK A01 T01820141  RH  077%=      5-min Rain = 0
KTAS 250811Z 17008KT 18/14 A2996 RMK A01 T01810141  RH  077%=      5-min Rain = 0
KTAS 250812Z 17009KT 18/14 A2996 RMK A01 T01810141  RH  077%=      5-min Rain = 0
KTAS 250813Z 17009KT 18/14 A2996 RMK A01 T01810141  RH  077%=      5-min Rain = 0
KTAS 250814Z 17009KT 18/14 A2996 RMK A01 T01800141  RH  078%=      5-min Rain = 0
KTAS 250815Z 17008KT 18/14 A2996 RMK A01 T01800141  RH  078%=      5-min Rain = 0
KTAS 250816Z 17009KT 18/14 A2996 RMK A01 T01800141  RH  078%=      5-min Rain = 0
KTAS 250817Z 17008KT 18/14 A2996 RMK A01 T01800140  RH  078%=      5-min Rain = 0
KTAS 250818Z 17009KT 18/14 A2996 RMK A01 T01800141  RH  078%=      5-min Rain = 0
KTAS 250819Z 17009KT 18/14 A2996 RMK A01 T01800140  RH  078%=      5-min Rain = 0
KTAS 250820Z 17008KT 18/14 A2996 RMK A01 T01790141  RH  078%=      5-min Rain = 0
KTAS 250821Z 17009KT 18/14 A2996 RMK A01 T01780141  RH  079%=      5-min Rain = 0
KTAS 250822Z 17010KT 18/14 A2997 RMK A01 T01780141  RH  079%=      5-min Rain = 0
KTAS 250823Z 17009KT 18/14 A2997 RMK A01 T01780141  RH  079%=      5-min Rain = 0
KTAS 250824Z 17009KT 18/14 A2997 RMK A01 T01770142  RH  080%=      5-min Rain = 0
KTAS 250825Z 17009KT 18/14 A2997 RMK A01 T01770142  RH  080%=      5-min Rain = 0
KTAS 250826Z 17009KT 18/14 A2997 RMK A01 T01770142  RH  080%=      5-min Rain = 0
KTAS 250827Z 17009KT 18/14 A2997 RMK A01 T01770142  RH  080%=      5-min Rain = 0
KTAS 250828Z 18009KT 18/14 A2997 RMK A01 T01770141  RH  080%=      5-min Rain = 0
KTAS 250829Z 18009KT 18/14 A2997 RMK A01 T01770141  RH  079%=      5-min Rain = 0
KTAS 250830Z 18009KT 18/14 A2997 RMK A01 T01770141  RH  079%=      5-min Rain = 0
KTAS 250831Z 18009KT 18/14 A2997 RMK A01 T01770141  RH  079%=      5-min Rain = 0
KTAS 250832Z 18011KT 18/14 A2997 RMK A01 T01770140  RH  079%=      5-min Rain = 0
KTAS 250833Z 18011KT 18/14 A2997 RMK A01 T01790137  RH  076%=      5-min Rain = 0
KTAS 250834Z 19010KT 18/14 A2997 RMK A01 T01810138  RH  076%=      5-min Rain = 0
KTAS 250835Z 19008KT 18/14 A2997 RMK A01 T01800138  RH  076%=      5-min Rain = 0
KTAS 250836Z 19009KT 18/14 A2997 RMK A01 T01790137  RH  076%=      5-min Rain = 0
KTAS 250837Z 18011KT 18/14 A2997 RMK A01 T01790137  RH  076%=      5-min Rain = 0
KTAS 250838Z 19011KT 18/14 A2997 RMK A01 T01800136  RH  076%=      5-min Rain = 0
KTAS 250839Z 19010KT 18/14 A2996 RMK A01 T01800136  RH  075%=      5-min Rain = 0
KTAS 250840Z 19010KT 18/14 A2996 RMK A01 T01800136  RH  076%=      5-min Rain = 0
KTAS 250841Z 20010KT 18/14 A2996 RMK A01 T01790137  RH  076%=      5-min Rain = 0
KTAS 250842Z 20009KT 18/14 A2996 RMK A01 T01790137  RH  076%=      5-min Rain = 0
KTAS 250843Z 19009KT 18/14 A2996 RMK A01 T01780137  RH  077%=      5-min Rain = 0
KTAS 250844Z 19008KT 18/14 A2996 RMK A01 T01780137  RH  077%=      5-min Rain = 0
KTAS 250845Z 19009KT 18/14 A2996 RMK A01 T01780137  RH  077%=      5-min Rain = 0
KTAS 250846Z 19008KT 18/14 A2996 RMK A01 T01780137  RH  077%=      5-min Rain = 0
KTAS 250847Z 19008KT 18/14 A2996 RMK A01 T01770137  RH  078%=      5-min Rain = 0
KTAS 250848Z 19008KT 18/14 A2996 RMK A01 T01760137  RH  078%=      5-min Rain = 0
KTAS 250849Z 19008KT 18/14 A2996 RMK A01 T01750137  RH  078%=      5-min Rain = 0
KTAS 250850Z 19009KT 18/14 A2996 RMK A01 T01750137  RH  078%=      5-min Rain = 0
KTAS 250851Z 19008KT 18/14 A2996 RMK A01 T01750138  RH  079%=      5-min Rain = 0
KTAS 250852Z 19009KT 17/14 A2996 RMK A01 T01740137  RH  079%=      5-min Rain = 0
KTAS 250853Z 19008KT 17/14 A2996 RMK A01 T01740137  RH  079%=      5-min Rain = 0
KTAS 250854Z 19008KT 17/14 A2996 RMK A01 T01740137  RH  079%=      5-min Rain = 0
KTAS 250855Z 19008KT 17/14 A2996 RMK A01 T01740137  RH  079%=      5-min Rain = 0
KTAS 250856Z 19008KT 17/14 A2997 RMK A01 T01740137  RH  079%=      5-min Rain = 0
KTAS 250857Z 19009KT 17/14 A2997 RMK A01 T01740137  RH  079%=      5-min Rain = 0
KTAS 250858Z 20009KT 17/14 A2997 RMK A01 T01740137  RH  079%=      5-min Rain = 0
KTAS 250859Z 20007KT 18/14 A2997 RMK A01 T01750137  RH  078%=      5-min Rain = 0
KTAS 250900Z 20007KT 18/14 A2996 RMK A01 T01750137  RH  079%=      5-min Rain = 0
KTAS 250901Z 20007KT 17/14 A2996 RMK A01 T01740137  RH  079%=      5-min Rain = 0
KTAS 250902Z 20008KT 17/14 A2997 RMK A01 T01740137  RH  079%=      5-min Rain = 0
KTAS 250903Z 20008KT 17/14 A2997 RMK A01 T01740137  RH  079%=      5-min Rain = 0
KTAS 250904Z 20007KT 17/14 A2997 RMK A01 T01740137  RH  079%=      5-min Rain = 0
KTAS 250905Z 20008KT 17/14 A2997 RMK A01 T01740137  RH  079%=      5-min Rain = 0
KTAS 250906Z 20008KT 17/14 A2997 RMK A01 T01740137  RH  079%=      5-min Rain = 0
KTAS 250907Z 20008KT 17/14 A2997 RMK A01 T01740137  RH  079%=      5-min Rain = 0
KTAS 250908Z 20007KT 17/14 A2996 RMK A01 T01740138  RH  079%=      5-min Rain = 0
KTAS 250909Z 20008KT 17/14 A2996 RMK A01 T01740137  RH  079%=      5-min Rain = 0
KTAS 250910Z 20008KT 17/14 A2996 RMK A01 T01740138  RH  079%=      5-min Rain = 0
KTAS 250911Z 20007KT 17/14 A2996 RMK A01 T01740138  RH  079%=      5-min Rain = 0
KTAS 250912Z 20008KT 17/14 A2996 RMK A01 T01740138  RH  079%=      5-min Rain = 0
KTAS 250913Z 20009KT 17/14 A2996 RMK A01 T01740139  RH  080%=      5-min Rain = 0
KTAS 250914Z 20008KT 17/14 A2996 RMK A01 T01740138  RH  080%=      5-min Rain = 0
KTAS 250915Z 20008KT 18/14 A2996 RMK A01 T01750139  RH  080%=      5-min Rain = 0
KTAS 250916Z 20009KT 18/14 A2996 RMK A01 T01750139  RH  079%=      5-min Rain = 0
KTAS 250917Z 20009KT 18/14 A2996 RMK A01 T01750139  RH  079%=      5-min Rain = 0
KTAS 250918Z 20009KT 18/14 A2996 RMK A01 T01750139  RH  079%=      5-min Rain = 0
KTAS 250919Z 21008KT 18/14 A2996 RMK A01 T01760139  RH  079%=      5-min Rain = 0
KTAS 250920Z 20009KT 18/14 A2996 RMK A01 T01760139  RH  079%=      5-min Rain = 0
KTAS 250921Z 20009KT 18/14 A2996 RMK A01 T01760139  RH  079%=      5-min Rain = 0
KTAS 250922Z 20009KT 18/14 A2996 RMK A01 T01760139  RH  079%=      5-min Rain = 0
KTAS 250923Z 20008KT 18/14 A2997 RMK A01 T01760140  RH  079%=      5-min Rain = 0
KTAS 250924Z 20009KT 18/14 A2997 RMK A01 T01760140  RH  079%=      5-min Rain = 0
KTAS 250925Z 19009KT 18/14 A2997 RMK A01 T01760140  RH  079%=      5-min Rain = 0
KTAS 250926Z 20009KT 18/14 A2997 RMK A01 T01760140  RH  079%=      5-min Rain = 0
KTAS 250927Z 20009KT 18/14 A2997 RMK A01 T01770140  RH  079%=      5-min Rain = 0
KTAS 250928Z 19010KT 18/14 A2997 RMK A01 T01770140  RH  079%=      5-min Rain = 0
KTAS 250929Z 20010KT 18/14 A2997 RMK A01 T01770141  RH  079%=      5-min Rain = 0
KTAS 250930Z 20011KT 18/14 A2997 RMK A01 T01770140  RH  079%=      5-min Rain = 0
KTAS 250931Z 20010KT 18/14 A2997 RMK A01 T01770140  RH  079%=      5-min Rain = 0
KTAS 250932Z 20011KT 18/14 A2997 RMK A01 T01780140  RH  079%=      5-min Rain = 0
KTAS 250933Z 19008KT 18/14 A2997 RMK A01 T01780140  RH  079%=      5-min Rain = 0
KTAS 250934Z 20010KT 18/14 A2997 RMK A01 T01770140  RH  079%=      5-min Rain = 0
KTAS 250935Z 20010KT 18/14 A2997 RMK A01 T01770141  RH  079%=      5-min Rain = 0
KTAS 250936Z 20011KT 18/14 A2997 RMK A01 T01770140  RH  079%=      5-min Rain = 0
KTAS 250937Z 20010KT 18/14 A2997 RMK A01 T01770140  RH  079%=      5-min Rain = 0
KTAS 250938Z 20010KT 18/14 A2997 RMK A01 T01770140  RH  079%=      5-min Rain = 0
KTAS 250939Z 20009KT 18/14 A2997 RMK A01 T01780140  RH  079%=      5-min Rain = 0
KTAS 250940Z 20009KT 18/14 A2997 RMK A01 T01780141  RH  079%=      5-min Rain = 0
KTAS 250941Z 20009KT 18/14 A2997 RMK A01 T01770140  RH  079%=      5-min Rain = 0
KTAS 250942Z 21010KT 18/14 A2997 RMK A01 T01780140  RH  079%=      5-min Rain = 0
KTAS 250943Z 20010KT 18/14 A2997 RMK A01 T01790140  RH  078%=      5-min Rain = 0
KTAS 250944Z 20010KT 18/14 A2997 RMK A01 T01790140  RH  078%=      5-min Rain = 0
KTAS 250945Z 21009KT 18/14 A2997 RMK A01 T01790140  RH  078%=      5-min Rain = 0
KTAS 250946Z 20010KT 18/14 A2997 RMK A01 T01790140  RH  078%=      5-min Rain = 0
KTAS 250947Z 20010KT 18/14 A2997 RMK A01 T01800140  RH  077%=      5-min Rain = 0
KTAS 250948Z 20008KT 18/14 A2997 RMK A01 T01800140  RH  077%=      5-min Rain = 0
KTAS 250949Z 20010KT 18/14 A2997 RMK A01 T01790140  RH  078%=      5-min Rain = 0
KTAS 250950Z 20011KT 18/14 A2997 RMK A01 T01800140  RH  077%=      5-min Rain = 0
KTAS 250951Z 20010KT 18/14 A2997 RMK A01 T01800140  RH  077%=      5-min Rain = 0
KTAS 250952Z 21010KT 18/14 A2997 RMK A01 T01800140  RH  077%=      5-min Rain = 0
KTAS 250953Z 21010KT 18/14 A2997 RMK A01 T01800140  RH  077%=      5-min Rain = 0
KTAS 250954Z 20010KT 18/14 A2997 RMK A01 T01800140  RH  077%=      5-min Rain = 0
KTAS 250955Z 20009KT 18/14 A2997 RMK A01 T01810140  RH  077%=      5-min Rain = 0
KTAS 250956Z 20009KT 18/14 A2997 RMK A01 T01810140  RH  077%=      5-min Rain = 0
KTAS 250957Z 20010KT 18/14 A2997 RMK A01 T01800140  RH  077%=      5-min Rain = 0
KTAS 250958Z 21009KT 18/14 A2997 RMK A01 T01800140  RH  077%=      5-min Rain = 0
KTAS 250959Z 21010KT 18/14 A2997 RMK A01 T01790140  RH  078%=      5-min Rain = 0
KTAS 251000Z 21011KT 18/14 A2997 RMK A01 T01800140  RH  077%=      5-min Rain = 0
KTAS 251001Z 21010KT 18/14 A2997 RMK A01 T01800140  RH  077%=      5-min Rain = 0
KTAS 251002Z 21010KT 18/14 A2997 RMK A01 T01800140  RH  077%=      5-min Rain = 0
KTAS 251003Z 20011KT 18/14 A2997 RMK A01 T01800139  RH  077%=      5-min Rain = 0
KTAS 251004Z 20011KT 18/14 A2997 RMK A01 T01810139  RH  077%=      5-min Rain = 0
KTAS 251005Z 21010KT 18/14 A2997 RMK A01 T01810139  RH  076%=      5-min Rain = 0
KTAS 251006Z 20011KT 18/14 A2997 RMK A01 T01810140  RH  077%=      5-min Rain = 0
KTAS 251007Z 20010KT 18/14 A2997 RMK A01 T01810139  RH  077%=      5-min Rain = 0
KTAS 251008Z 20011KT 18/14 A2997 RMK A01 T01810140  RH  077%=      5-min Rain = 0
KTAS 251009Z 20010KT 18/14 A2998 RMK A01 T01810140  RH  077%=      5-min Rain = 0
KTAS 251010Z 20010KT 18/14 A2998 RMK A01 T01800140  RH  077%=      5-min Rain = 0
KTAS 251011Z 20010KT 18/14 A2998 RMK A01 T01800140  RH  077%=      5-min Rain = 0
KTAS 251012Z 21010KT 18/14 A2997 RMK A01 T01810140  RH  077%=      5-min Rain = 0
KTAS 251013Z 21010KT 18/14 A2997 RMK A01 T01800140  RH  077%=      5-min Rain = 0
KTAS 251014Z 21009KT 18/14 A2997 RMK A01 T01800140  RH  078%=      5-min Rain = 0
KTAS 251015Z 21011KT 18/14 A2997 RMK A01 T01790140  RH  078%=      5-min Rain = 0
KTAS 251016Z 21011KT 18/14 A2997 RMK A01 T01790140  RH  078%=      5-min Rain = 0
KTAS 251017Z 21010KT 18/14 A2997 RMK A01 T01800140  RH  078%=      5-min Rain = 0
KTAS 251018Z 21010KT 18/14 A2997 RMK A01 T01790140  RH  078%=      5-min Rain = 0
KTAS 251019Z 21010KT 18/14 A2997 RMK A01 T01790140  RH  078%=      5-min Rain = 0
KTAS 251020Z 21009KT 18/14 A2997 RMK A01 T01790140  RH  078%=      5-min Rain = 0
KTAS 251021Z 21011KT 18/14 A2997 RMK A01 T01780140  RH  078%=      5-min Rain = 0
KTAS 251022Z 21011KT 18/14 A2997 RMK A01 T01780141  RH  078%=      5-min Rain = 0
KTAS 251023Z 21009KT 18/14 A2997 RMK A01 T01790141  RH  078%=      5-min Rain = 0
KTAS 251024Z 21010KT 18/14 A2997 RMK A01 T01780141  RH  079%=      5-min Rain = 0
KTAS 251025Z 21009KT 18/14 A2997 RMK A01 T01780141  RH  079%=      5-min Rain = 0
KTAS 251026Z 21010KT 18/14 A2997 RMK A01 T01780141  RH  079%=      5-min Rain = 0
KTAS 251027Z 21010KT 18/14 A2997 RMK A01 T01770141  RH  079%=      5-min Rain = 0
KTAS 251028Z 21009KT 18/14 A2997 RMK A01 T01780141  RH  079%=      5-min Rain = 0
KTAS 251029Z 21011KT 18/14 A2997 RMK A01 T01780141  RH  079%=      5-min Rain = 0
KTAS 251030Z 21010KT 18/14 A2997 RMK A01 T01780140  RH  079%=      5-min Rain = 0
KTAS 251031Z 21010KT 18/14 A2997 RMK A01 T01780140  RH  079%=      5-min Rain = 0
KTAS 251032Z 21010KT 18/14 A2997 RMK A01 T01780140  RH  079%=      5-min Rain = 0
KTAS 251033Z 21011KT 18/14 A2997 RMK A01 T01780141  RH  079%=      5-min Rain = 0
KTAS 251034Z 21010KT 18/14 A2997 RMK A01 T01780140  RH  079%=      5-min Rain = 0
KTAS 251035Z 22011KT 18/14 A2997 RMK A01 T01780141  RH  079%=      5-min Rain = 0
KTAS 251036Z 21011KT 18/14 A2997 RMK A01 T01780140  RH  079%=      5-min Rain = 0
KTAS 251037Z 22011KT 18/14 A2997 RMK A01 T01770141  RH  079%=      5-min Rain = 0
KTAS 251038Z 21010KT 18/14 A2997 RMK A01 T01770141  RH  079%=      5-min Rain = 0
KTAS 251039Z 21010KT 18/14 A2997 RMK A01 T01770141  RH  079%=      5-min Rain = 0
KTAS 251040Z 22009KT 18/14 A2997 RMK A01 T01760141  RH  080%=      5-min Rain = 0
KTAS 251041Z 21010KT 18/14 A2997 RMK A01 T01760141  RH  080%=      5-min Rain = 0
KTAS 251042Z 21010KT 18/14 A2997 RMK A01 T01760141  RH  080%=      5-min Rain = 0
KTAS 251043Z 21010KT 18/14 A2997 RMK A01 T01760141  RH  080%=      5-min Rain = 0
KTAS 251044Z 21011KT 18/14 A2997 RMK A01 T01760141  RH  080%=      5-min Rain = 0
KTAS 251045Z 21011KT 18/14 A2997 RMK A01 T01760141  RH  080%=      5-min Rain = 0
KTAS 251046Z 21009KT 18/14 A2998 RMK A01 T01760141  RH  080%=      5-min Rain = 0
KTAS 251047Z 21009KT 18/14 A2998 RMK A01 T01760141  RH  080%=      5-min Rain = 0
KTAS 251048Z 22009KT 18/14 A2998 RMK A01 T01760141  RH  080%=      5-min Rain = 0
KTAS 251049Z 21010KT 18/14 A2998 RMK A01 T01750141  RH  080%=      5-min Rain = 0
KTAS 251050Z 22010KT 18/14 A2998 RMK A01 T01760141  RH  080%=      5-min Rain = 0
KTAS 251051Z 21010KT 18/14 A2998 RMK A01 T01750141  RH  080%=      5-min Rain = 0
KTAS 251052Z 21009KT 18/14 A2998 RMK A01 T01750141  RH  081%=      5-min Rain = 0
KTAS 251053Z 21009KT 17/14 A2998 RMK A01 T01740141  RH  081%=      5-min Rain = 0
KTAS 251054Z 21011KT 17/14 A2998 RMK A01 T01740141  RH  081%=      5-min Rain = 0
KTAS 251055Z 21010KT 17/14 A2998 RMK A01 T01740141  RH  081%=      5-min Rain = 0
KTAS 251056Z 21010KT 17/14 A2998 RMK A01 T01740141  RH  081%=      5-min Rain = 0
KTAS 251057Z 22009KT 18/14 A2998 RMK A01 T01750141  RH  080%=      5-min Rain = 0
KTAS 251058Z 21008KT 18/14 A2998 RMK A01 T01750141  RH  081%=      5-min Rain = 0
KTAS 251059Z 22011KT 17/14 A2998 RMK A01 T01740141  RH  081%=      5-min Rain = 0
KTAS 251100Z 21008KT 17/14 A2998 RMK A01 T01740141  RH  081%=      5-min Rain = 0
KTAS 251101Z 21008KT 17/14 A2998 RMK A01 T01740141  RH  081%=      5-min Rain = 0
KTAS 251102Z 21009KT 17/14 A2998 RMK A01 T01740141  RH  081%=      5-min Rain = 0
KTAS 251103Z 22009KT 17/14 A2998 RMK A01 T01740141  RH  081%=      5-min Rain = 0
KTAS 251104Z 22008KT 17/14 A2998 RMK A01 T01730141  RH  082%=      5-min Rain = 0
KTAS 251105Z 21009KT 17/14 A2998 RMK A01 T01730141  RH  082%=      5-min Rain = 0
KTAS 251106Z 21008KT 17/14 A2998 RMK A01 T01730141  RH  081%=      5-min Rain = 0
KTAS 251107Z 21009KT 17/14 A2998 RMK A01 T01740141  RH  081%=      5-min Rain = 0
KTAS 251108Z 21009KT 17/14 A2998 RMK A01 T01740141  RH  081%=      5-min Rain = 0
KTAS 251109Z 21009KT 17/14 A2998 RMK A01 T01740141  RH  081%=      5-min Rain = 0
KTAS 251110Z 21008KT 17/14 A2998 RMK A01 T01740141  RH  081%=      5-min Rain = 0
KTAS 251111Z 21008KT 17/14 A2998 RMK A01 T01740141  RH  081%=      5-min Rain = 0
KTAS 251112Z 21008KT 17/14 A2999 RMK A01 T01740141  RH  081%=      5-min Rain = 0
KTAS 251113Z 21008KT 17/14 A2999 RMK A01 T01740141  RH  081%=      5-min Rain = 0
KTAS 251114Z 21007KT 17/14 A2999 RMK A01 T01730140  RH  081%=      5-min Rain = 0
KTAS 251115Z 21008KT 17/14 A2999 RMK A01 T01740141  RH  081%=      5-min Rain = 0
KTAS 251116Z 21008KT 17/14 A2999 RMK A01 T01740141  RH  081%=      5-min Rain = 0
KTAS 251117Z 21007KT 17/14 A2999 RMK A01 T01740141  RH  081%=      5-min Rain = 0
KTAS 251118Z 21008KT 17/14 A2999 RMK A01 T01730141  RH  081%=      5-min Rain = 0
KTAS 251119Z 21007KT 17/14 A2999 RMK A01 T01720141  RH  082%=      5-min Rain = 0
KTAS 251120Z 20007KT 17/14 A2999 RMK A01 T01720141  RH  082%=      5-min Rain = 0
KTAS 251121Z 21007KT 17/14 A2999 RMK A01 T01720141  RH  082%=      5-min Rain = 0
KTAS 251122Z 20008KT 17/14 A2999 RMK A01 T01720141  RH  082%=      5-min Rain = 0
KTAS 251123Z 20007KT 17/14 A2999 RMK A01 T01720141  RH  082%=      5-min Rain = 0
KTAS 251124Z 21007KT 17/14 A2999 RMK A01 T01720141  RH  082%=      5-min Rain = 0
KTAS 251125Z 21007KT 17/14 A2999 RMK A01 T01720141  RH  082%=      5-min Rain = 0
KTAS 251126Z 21006KT 17/14 A2999 RMK A01 T01720141  RH  082%=      5-min Rain = 0
KTAS 251127Z 21007KT 17/14 A2999 RMK A01 T01710140  RH  082%=      5-min Rain = 0
KTAS 251128Z 21007KT 17/14 A2999 RMK A01 T01710141  RH  082%=      5-min Rain = 0
KTAS 251129Z 21008KT 17/14 A2999 RMK A01 T01710140  RH  082%=      5-min Rain = 0
KTAS 251130Z 21007KT 17/14 A2999 RMK A01 T01700140  RH  082%=      5-min Rain = 0
KTAS 251131Z 21008KT 17/14 A2999 RMK A01 T01700140  RH  082%=      5-min Rain = 0
KTAS 251132Z 22007KT 17/14 A2999 RMK A01 T01700140  RH  082%=      5-min Rain = 0
KTAS 251133Z 21007KT 17/14 A2999 RMK A01 T01700140  RH  083%=      5-min Rain = 0
KTAS 251134Z 21007KT 17/14 A2999 RMK A01 T01700140  RH  083%=      5-min Rain = 0
KTAS 251135Z 21007KT 17/14 A2999 RMK A01 T01690140  RH  083%=      5-min Rain = 0
KTAS 251136Z 21007KT 17/14 A2999 RMK A01 T01690140  RH  083%=      5-min Rain = 0
KTAS 251137Z 21007KT 17/14 A2999 RMK A01 T01690141  RH  083%=      5-min Rain = 0
KTAS 251138Z 21008KT 17/14 A2999 RMK A01 T01690141  RH  083%=      5-min Rain = 0
KTAS 251139Z 21007KT 17/14 A2999 RMK A01 T01690141  RH  083%=      5-min Rain = 0
KTAS 251140Z 21007KT 17/14 A2999 RMK A01 T01690141  RH  083%=      5-min Rain = 0
KTAS 251141Z 21007KT 17/14 A30 RMK A01 T01690141  RH  083%=      5-min Rain = 0
KTAS 251142Z 21007KT 17/14 A30 RMK A01 T01690141  RH  083%=      5-min Rain = 0
KTAS 251143Z 21007KT 17/14 A30 RMK A01 T01690141  RH  083%=      5-min Rain = 0
KTAS 251144Z 21007KT 17/14 A30 RMK A01 T01690141  RH  083%=      5-min Rain = 0
KTAS 251145Z 21007KT 17/14 A30 RMK A01 T01690141  RH  083%=      5-min Rain = 0
KTAS 251146Z 21006KT 17/14 A30 RMK A01 T01690141  RH  083%=      5-min Rain = 0
KTAS 251147Z 21006KT 17/14 A30 RMK A01 T01690141  RH  083%=      5-min Rain = 0
KTAS 251148Z 21007KT 17/14 A30 RMK A01 T01690141  RH  083%=      5-min Rain = 0
KTAS 251149Z 21007KT 17/14 A30 RMK A01 T01690141  RH  083%=      5-min Rain = 0
KTAS 251150Z 21007KT 17/14 A30 RMK A01 T01700141  RH  083%=      5-min Rain = 0
KTAS 251151Z 21007KT 17/14 A30 RMK A01 T01700141  RH  083%=      5-min Rain = 0
KTAS 251152Z 21007KT 17/14 A30 RMK A01 T01700141  RH  083%=      5-min Rain = 0
KTAS 251153Z 21007KT 17/14 A30 RMK A01 T01700141  RH  083%=      5-min Rain = 0
KTAS 251154Z 21007KT 17/14 A30 RMK A01 T01700141  RH  083%=      5-min Rain = 0
KTAS 251155Z 21007KT 17/14 A30 RMK A01 T01700142  RH  084%=      5-min Rain = 0
KTAS 251156Z 21008KT 17/14 A30 RMK A01 T01700142  RH  084%=      5-min Rain = 0
KTAS 251157Z 21008KT 17/14 A30 RMK A01 T01700142  RH  083%=      5-min Rain = 0
KTAS 251158Z 21008KT 17/14 A30 RMK A01 T01710142  RH  083%=      5-min Rain = 0
KTAS 251159Z 21008KT 17/14 A30 RMK A01 T01720142  RH  083%=      5-min Rain = 0
KTAS 251200Z 22008KT 17/14 A30 RMK A01 T01720142  RH  083%=      5-min Rain = 0
KTAS 251201Z 21008KT 17/14 A30 RMK A01 T01720142  RH  082%=      5-min Rain = 0
KTAS 251202Z 22008KT 17/14 A30 RMK A01 T01730142  RH  082%=      5-min Rain = 0
KTAS 251203Z 21008KT 17/14 A30 RMK A01 T01730142  RH  082%=      5-min Rain = 0
KTAS 251204Z 22008KT 17/14 A30 RMK A01 T01740143  RH  082%=      5-min Rain = 0
KTAS 251205Z 22008KT 17/14 A30 RMK A01 T01740142  RH  082%=      5-min Rain = 0
KTAS 251206Z 22008KT 17/14 A30 RMK A01 T01740142  RH  081%=      5-min Rain = 0
KTAS 251207Z 22008KT 18/14 A30 RMK A01 T01750142  RH  081%=      5-min Rain = 0
KTAS 251208Z 22009KT 18/14 A30 RMK A01 T01760142  RH  081%=      5-min Rain = 0
KTAS 251209Z 22008KT 18/14 A30 RMK A01 T01760142  RH  080%=      5-min Rain = 0
KTAS 251210Z 21008KT 18/14 A30 RMK A01 T01770142  RH  080%=      5-min Rain = 0
KTAS 251211Z 21008KT 18/14 A30 RMK A01 T01770142  RH  080%=      5-min Rain = 0
KTAS 251212Z 21008KT 18/14 A30 RMK A01 T01780142  RH  079%=      5-min Rain = 0
KTAS 251213Z 21008KT 18/14 A30 RMK A01 T01780142  RH  079%=      5-min Rain = 0
KTAS 251214Z 21009KT 18/14 A30 RMK A01 T01790142  RH  079%=      5-min Rain = 0
KTAS 251215Z 21009KT 18/14 A3001 RMK A01 T01800142  RH  078%=      5-min Rain = 0
KTAS 251216Z 21007KT 18/14 A3001 RMK A01 T01810143  RH  078%=      5-min Rain = 0
KTAS 251217Z 21008KT 18/14 A3001 RMK A01 T01810143  RH  078%=      5-min Rain = 0
KTAS 251218Z 21009KT 18/14 A3001 RMK A01 T01810142  RH  078%=      5-min Rain = 0
KTAS 251219Z 21009KT 18/14 A3001 RMK A01 T01820143  RH  078%=      5-min Rain = 0
KTAS 251220Z 21009KT 18/14 A3001 RMK A01 T01820142  RH  077%=      5-min Rain = 0
KTAS 251221Z 21007KT 18/14 A3001 RMK A01 T01830144  RH  078%=      5-min Rain = 0
KTAS 251222Z 21008KT 18/14 A3001 RMK A01 T01830144  RH  078%=      5-min Rain = 0
KTAS 251223Z 21008KT 18/14 A3001 RMK A01 T01830143  RH  078%=      5-min Rain = 0
KTAS 251224Z 21007KT 18/14 A3001 RMK A01 T01830143  RH  078%=      5-min Rain = 0
KTAS 251225Z 21007KT 18/14 A3001 RMK A01 T01830144  RH  078%=      5-min Rain = 0
KTAS 251226Z 21007KT 18/14 A3001 RMK A01 T01840144  RH  078%=      5-min Rain = 0
KTAS 251227Z 21007KT 18/15 A3001 RMK A01 T01840145  RH  078%=      5-min Rain = 0
KTAS 251228Z 21008KT 18/15 A3001 RMK A01 T01830145  RH  078%=      5-min Rain = 0
KTAS 251229Z 21007KT 18/14 A3001 RMK A01 T01840144  RH  078%=      5-min Rain = 0
KTAS 251230Z 21008KT 18/15 A3001 RMK A01 T01840145  RH  078%=      5-min Rain = 0
KTAS 251231Z 21007KT 18/15 A3001 RMK A01 T01840145  RH  078%=      5-min Rain = 0
KTAS 251232Z 21007KT 19/15 A3001 RMK A01 T01850146  RH  078%=      5-min Rain = 0
KTAS 251233Z 21007KT 19/15 A3001 RMK A01 T01850146  RH  078%=      5-min Rain = 0
KTAS 251234Z 21007KT 19/15 A3001 RMK A01 T01850146  RH  078%=      5-min Rain = 0
KTAS 251235Z 21008KT 19/15 A3001 RMK A01 T01860145  RH  077%=      5-min Rain = 0
KTAS 251236Z 21007KT 19/15 A3001 RMK A01 T01860145  RH  077%=      5-min Rain = 0
KTAS 251237Z 21006KT 19/15 A3001 RMK A01 T01860146  RH  077%=      5-min Rain = 0
KTAS 251238Z 21006KT 19/15 A3001 RMK A01 T01870147  RH  078%=      5-min Rain = 0
KTAS 251239Z 21006KT 19/15 A3001 RMK A01 T01870147  RH  078%=      5-min Rain = 0
KTAS 251240Z 21008KT 19/15 A3001 RMK A01 T01870147  RH  077%=      5-min Rain = 0
KTAS 251241Z 21007KT 19/15 A3001 RMK A01 T01880147  RH  077%=      5-min Rain = 0
KTAS 251242Z 21006KT 19/15 A3001 RMK A01 T01880147  RH  077%=      5-min Rain = 0
KTAS 251243Z 21007KT 19/15 A3001 RMK A01 T01890148  RH  077%=      5-min Rain = 0
KTAS 251244Z 21008KT 19/15 A3001 RMK A01 T01890147  RH  076%=      5-min Rain = 0
KTAS 251245Z 21008KT 19/15 A3001 RMK A01 T01900148  RH  076%=      5-min Rain = 0
KTAS 251246Z 21007KT 19/15 A3001 RMK A01 T01900148  RH  076%=      5-min Rain = 0
KTAS 251247Z 21008KT 19/15 A3001 RMK A01 T01910148  RH  076%=      5-min Rain = 0
KTAS 251248Z 22008KT 19/15 A3001 RMK A01 T01910148  RH  076%=      5-min Rain = 0
KTAS 251249Z 22008KT 19/15 A3001 RMK A01 T01920148  RH  076%=      5-min Rain = 0
KTAS 251250Z 22007KT 19/15 A3001 RMK A01 T01920148  RH  075%=      5-min Rain = 0
KTAS 251251Z 21009KT 19/15 A3001 RMK A01 T01930148  RH  075%=      5-min Rain = 0
KTAS 251252Z 21010KT 19/15 A3001 RMK A01 T01930147  RH  075%=      5-min Rain = 0
KTAS 251253Z 21010KT 19/15 A3001 RMK A01 T01930148  RH  075%=      5-min Rain = 0
KTAS 251254Z 22009KT 19/15 A3001 RMK A01 T01940149  RH  075%=      5-min Rain = 0
KTAS 251255Z 21010KT 19/15 A3001 RMK A01 T01940148  RH  075%=      5-min Rain = 0
KTAS 251256Z 22009KT 20/15 A3002 RMK A01 T01950149  RH  075%=      5-min Rain = 0
KTAS 251257Z 22009KT 20/15 A3002 RMK A01 T01950149  RH  075%=      5-min Rain = 0
KTAS 251258Z 22009KT 20/15 A3002 RMK A01 T01950149  RH  075%=      5-min Rain = 0
KTAS 251259Z 21009KT 20/15 A3002 RMK A01 T01960150  RH  075%=      5-min Rain = 0
KTAS 251300Z 21008KT 20/15 A3002 RMK A01 T01970150  RH  075%=      5-min Rain = 0
KTAS 251301Z 21009KT 20/15 A3002 RMK A01 T01970151  RH  075%=      5-min Rain = 0
KTAS 251302Z 21010KT 20/15 A3002 RMK A01 T01980151  RH  074%=      5-min Rain = 0
KTAS 251303Z 22011KT 20/15 A3002 RMK A01 T01980150  RH  074%=      5-min Rain = 0
KTAS 251304Z 22010KT 20/15 A3002 RMK A01 T01990150  RH  074%=      5-min Rain = 0
KTAS 251305Z 22010G15KT 20/15 A3002 RMK A01 T01990151  RH  074%=      5-min Rain = 0
KTAS 251306Z 22011KT 20/15 A3002 RMK A01 T02000151  RH  073%=      5-min Rain = 0
KTAS 251307Z 22012KT 20/15 A3002 RMK A01 T02000151  RH  073%=      5-min Rain = 0
KTAS 251308Z 22011KT 20/15 A3002 RMK A01 T02000152  RH  073%=      5-min Rain = 0
KTAS 251309Z 22011G16KT 20/15 A3002 RMK A01 T02010152  RH  074%=      5-min Rain = 0
KTAS 251310Z 22010KT 20/15 A3002 RMK A01 T02010153  RH  074%=      5-min Rain = 0
KTAS 251311Z 22011KT 20/15 A3002 RMK A01 T02020154  RH  074%=      5-min Rain = 0
KTAS 251312Z 22011KT 20/15 A3002 RMK A01 T02020154  RH  074%=      5-min Rain = 0
KTAS 251313Z 22010KT 20/16 A3002 RMK A01 T02030155  RH  074%=      5-min Rain = 0
KTAS 251314Z 22012KT 20/16 A3002 RMK A01 T02040155  RH  074%=      5-min Rain = 0
KTAS 251315Z 22013KT 20/16 A3002 RMK A01 T02040156  RH  074%=      5-min Rain = 0
KTAS 251316Z 22011KT 21/16 A3002 RMK A01 T02050157  RH  074%=      5-min Rain = 0
KTAS 251317Z 22009KT 21/16 A3002 RMK A01 T02060159  RH  074%=      5-min Rain = 0
KTAS 251318Z 22011KT 21/16 A3002 RMK A01 T02070159  RH  074%=      5-min Rain = 0
KTAS 251319Z 23013KT 21/16 A3002 RMK A01 T02070158  RH  073%=      5-min Rain = 0
KTAS 251320Z 22013G18KT 21/16 A3002 RMK A01 T02070158  RH  074%=      5-min Rain = 0
KTAS 251321Z 22014KT 21/16 A3002 RMK A01 T02070159  RH  074%=      5-min Rain = 0
KTAS 251322Z 22015KT 21/16 A3002 RMK A01 T02070159  RH  074%=      5-min Rain = 0
KTAS 251323Z 22014KT 21/16 A3002 RMK A01 T02080159  RH  074%=      5-min Rain = 0
KTAS 251324Z 22012G18KT 21/16 A3002 RMK A01 T02080160  RH  074%=      5-min Rain = 0
KTAS 251325Z 22012KT 21/16 A3002 RMK A01 T02090161  RH  074%=      5-min Rain = 0
KTAS 251326Z 22013KT 21/16 A3002 RMK A01 T02090161  RH  074%=      5-min Rain = 0
KTAS 251327Z 22011KT 21/16 A3002 RMK A01 T02090161  RH  074%=      5-min Rain = 0
KTAS 251328Z 22012KT 21/16 A3002 RMK A01 T02100162  RH  074%=      5-min Rain = 0
KTAS 251329Z 22014KT 21/16 A3002 RMK A01 T02100162  RH  074%=      5-min Rain = 0
KTAS 251330Z 22013KT 21/16 A3002 RMK A01 T02100162  RH  074%=      5-min Rain = 0
KTAS 251331Z 22014KT 21/16 A3002 RMK A01 T02110163  RH  074%=      5-min Rain = 0
KTAS 251332Z 22017KT 21/16 A3002 RMK A01 T02110162  RH  074%=      5-min Rain = 0
KTAS 251333Z 22016KT 21/16 A3002 RMK A01 T02100162  RH  074%=      5-min Rain = 0
KTAS 251334Z 21015KT 21/16 A3002 RMK A01 T02110163  RH  074%=      5-min Rain = 0
KTAS 251335Z 22014KT 21/16 A3002 RMK A01 T02110163  RH  074%=      5-min Rain = 0
KTAS 251336Z 22013KT 21/16 A3002 RMK A01 T02110163  RH  074%=      5-min Rain = 0
KTAS 251337Z 22013KT 21/16 A3002 RMK A01 T02110164  RH  074%=      5-min Rain = 0
KTAS 251338Z 22013KT 21/16 A3002 RMK A01 T02120164  RH  074%=      5-min Rain = 0
KTAS 251339Z 22012KT 21/16 A3002 RMK A01 T02120164  RH  074%=      5-min Rain = 0
KTAS 251340Z 22011KT 21/17 A3002 RMK A01 T02130166  RH  074%=      5-min Rain = 0
KTAS 251341Z 22014KT 21/17 A3002 RMK A01 T02140165  RH  074%=      5-min Rain = 0
KTAS 251342Z 22014KT 21/17 A3002 RMK A01 T02140165  RH  074%=      5-min Rain = 0
KTAS 251343Z 23014KT 21/17 A3002 RMK A01 T02140165  RH  074%=      5-min Rain = 0
KTAS 251344Z 22011KT 21/17 A3002 RMK A01 T02140166  RH  074%=      5-min Rain = 0
KTAS 251345Z 22010G16KT 22/17 A3002 RMK A01 T02150167  RH  074%=      5-min Rain = 0
KTAS 251346Z 22013G18KT 22/17 A3002 RMK A01 T02150167  RH  074%=      5-min Rain = 0
KTAS 251347Z 22015KT 21/17 A3002 RMK A01 T02140165  RH  074%=      5-min Rain = 0
KTAS 251348Z 22014KT 21/17 A3002 RMK A01 T02140166  RH  074%=      5-min Rain = 0
KTAS 251349Z 22013KT 21/17 A3002 RMK A01 T02140167  RH  074%=      5-min Rain = 0
KTAS 251350Z 22012KT 22/17 A3002 RMK A01 T02150168  RH  075%=      5-min Rain = 0
KTAS 251351Z 21011KT 22/17 A3002 RMK A01 T02160169  RH  075%=      5-min Rain = 0
KTAS 251352Z 22011KT 22/17 A3002 RMK A01 T02180171  RH  075%=      5-min Rain = 0
KTAS 251353Z 23014KT 22/17 A3002 RMK A01 T02180170  RH  074%=      5-min Rain = 0
KTAS 251354Z 22014G19KT 22/17 A3002 RMK A01 T02180170  RH  074%=      5-min Rain = 0
KTAS 251355Z 22018KT 22/17 A3002 RMK A01 T02170169  RH  074%=      5-min Rain = 0
KTAS 251356Z 22014KT 22/17 A3002 RMK A01 T02160169  RH  074%=      5-min Rain = 0
KTAS 251357Z 23016KT 22/17 A3002 RMK A01 T02160169  RH  075%=      5-min Rain = 0
KTAS 251358Z 22016KT 22/17 A3002 RMK A01 T02160169  RH  074%=      5-min Rain = 0
KTAS 251359Z 21012KT 22/17 A3002 RMK A01 T02160170  RH  075%=      5-min Rain = 0
KTAS 251400Z 22013KT 22/17 A3002 RMK A01 T02180172  RH  075%=      5-min Rain = 0
KTAS 251401Z 22014KT 22/17 A3002 RMK A01 T02180172  RH  075%=      5-min Rain = 0
KTAS 251402Z 22014KT 22/17 A3002 RMK A01 T02190173  RH  075%=      5-min Rain = 0
KTAS 251403Z 22017KT 22/17 A3002 RMK A01 T02190173  RH  075%=      5-min Rain = 0
KTAS 251404Z 22014KT 22/17 A3002 RMK A01 T02190172  RH  075%=      5-min Rain = 0
KTAS 251405Z 22017KT 22/17 A3002 RMK A01 T02190173  RH  075%=      5-min Rain = 0
KTAS 251406Z 23015KT 22/17 A3002 RMK A01 T02190173  RH  075%=      5-min Rain = 0
KTAS 251407Z 22015KT 22/17 A3002 RMK A01 T02200174  RH  075%=      5-min Rain = 0
KTAS 251408Z 22016KT 22/17 A3002 RMK A01 T02200173  RH  074%=      5-min Rain = 0
KTAS 251409Z 22014KT 22/17 A3002 RMK A01 T02200173  RH  075%=      5-min Rain = 0
KTAS 251410Z 22017KT 22/17 A3002 RMK A01 T02200173  RH  075%=      5-min Rain = 0
KTAS 251411Z 22017KT 22/17 A3002 RMK A01 T02200173  RH  075%=      5-min Rain = 0
KTAS 251412Z 22013G19KT 22/18 A3002 RMK A01 T02210175  RH  075%=      5-min Rain = 0
KTAS 251413Z 22014KT 22/17 A3002 RMK A01 T02210174  RH  075%=      5-min Rain = 0
KTAS 251414Z 22014KT 22/18 A3002 RMK A01 T02230176  RH  075%=      5-min Rain = 0
KTAS 251415Z 22014KT 22/18 A3002 RMK A01 T02230175  RH  074%=      5-min Rain = 0
KTAS 251416Z 22015KT 22/18 A3003 RMK A01 T02240176  RH  074%=      5-min Rain = 0
KTAS 251417Z 22018KT 22/17 A3002 RMK A01 T02230174  RH  074%=      5-min Rain = 0
KTAS 251418Z 22018KT 22/17 A3002 RMK A01 T02230174  RH  074%=      5-min Rain = 0
KTAS 251419Z 22016KT 22/17 A3002 RMK A01 T02230174  RH  074%=      5-min Rain = 0
KTAS 251420Z 23016G21KT 22/18 A3002 RMK A01 T02240175  RH  074%=      5-min Rain = 0
KTAS 251421Z 22014G19KT 23/18 A3002 RMK A01 T02250176  RH  074%=      5-min Rain = 0
KTAS 251422Z 22017KT 23/18 A3002 RMK A01 T02250175  RH  073%=      5-min Rain = 0
KTAS 251423Z 21014G19KT 23/18 A3002 RMK A01 T02250176  RH  073%=      5-min Rain = 0
KTAS 251424Z 22013KT 23/18 A3003 RMK A01 T02270177  RH  073%=      5-min Rain = 0
KTAS 251425Z 22016G21KT 23/18 A3002 RMK A01 T02270177  RH  073%=      5-min Rain = 0
KTAS 251426Z 22013G19KT 23/18 A3002 RMK A01 T02280177  RH  073%=      5-min Rain = 0
KTAS 251427Z 22015KT 23/18 A3002 RMK A01 T02290178  RH  073%=      5-min Rain = 0
KTAS 251428Z 23014KT 23/18 A3002 RMK A01 T02280177  RH  073%=      5-min Rain = 0
KTAS 251429Z 22013KT 23/18 A3003 RMK A01 T02300179  RH  073%=      5-min Rain = 0
KTAS 251430Z 22015KT 23/18 A3002 RMK A01 T02310179  RH  072%=      5-min Rain = 0
KTAS 251431Z 22015KT 23/18 A3002 RMK A01 T02310177  RH  072%=      5-min Rain = 0
KTAS 251432Z 22014KT 23/18 A3002 RMK A01 T02300177  RH  072%=      5-min Rain = 0
KTAS 251433Z 23014KT 23/18 A3003 RMK A01 T02310178  RH  072%=      5-min Rain = 0
KTAS 251434Z 23015KT 23/18 A3003 RMK A01 T02310178  RH  072%=      5-min Rain = 0
KTAS 251435Z 23014KT 23/18 A3003 RMK A01 T02310179  RH  072%=      5-min Rain = 0
KTAS 251436Z 22015KT 23/18 A3003 RMK A01 T02320179  RH  072%=      5-min Rain = 0
KTAS 251437Z 22011KT 23/18 A3003 RMK A01 T02330180  RH  072%=      5-min Rain = 0
KTAS 251438Z 22009KT 24/18 A3003 RMK A01 T02350183  RH  072%=      5-min Rain = 0
KTAS 251439Z 22011G16KT 24/18 A3003 RMK A01 T02370182  RH  072%=      5-min Rain = 0
KTAS 251440Z 23016KT 24/18 A3003 RMK A01 T02360180  RH  071%=      5-min Rain = 0
KTAS 251441Z 23015KT 24/18 A3003 RMK A01 T02350178  RH  070%=      5-min Rain = 0
KTAS 251442Z 22014KT 23/18 A3003 RMK A01 T02330178  RH  071%=      5-min Rain = 0
KTAS 251443Z 22014G19KT 23/18 A3003 RMK A01 T02340180  RH  071%=      5-min Rain = 0
KTAS 251444Z 22016KT 23/18 A3003 RMK A01 T02340178  RH  071%=      5-min Rain = 0
KTAS 251445Z 22016KT 23/18 A3003 RMK A01 T02340177  RH  071%=      5-min Rain = 0
KTAS 251446Z 22017KT 23/18 A3003 RMK A01 T02340178  RH  071%=      5-min Rain = 0
KTAS 251447Z 23016KT 23/18 A3002 RMK A01 T02340176  RH  070%=      5-min Rain = 0
KTAS 251448Z 23015KT 23/18 A3003 RMK A01 T02330176  RH  070%=      5-min Rain = 0
KTAS 251449Z 22015KT 24/18 A3003 RMK A01 T02350179  RH  071%=      5-min Rain = 0
KTAS 251450Z 23017KT 24/18 A3003 RMK A01 T02360179  RH  070%=      5-min Rain = 0
KTAS 251451Z 22018KT 24/18 A3003 RMK A01 T02360177  RH  070%=      5-min Rain = 0
KTAS 251452Z 22018KT 24/18 A3003 RMK A01 T02350176  RH  069%=      5-min Rain = 0
KTAS 251453Z 22015KT 24/18 A3002 RMK A01 T02350177  RH  070%=      5-min Rain = 0
KTAS 251454Z 22013KT 24/18 A3003 RMK A01 T02360179  RH  070%=      5-min Rain = 0
KTAS 251455Z 22015KT 24/18 A3003 RMK A01 T02370178  RH  069%=      5-min Rain = 0
KTAS 251456Z 22013KT 24/18 A3003 RMK A01 T02370179  RH  070%=      5-min Rain = 0
KTAS 251457Z 22014KT 24/18 A3003 RMK A01 T02390180  RH  069%=      5-min Rain = 0
KTAS 251458Z 22015KT 24/18 A3003 RMK A01 T02390178  RH  069%=      5-min Rain = 0
KTAS 251459Z 22015KT 24/18 A3003 RMK A01 T02380177  RH  069%=      5-min Rain = 0
KTAS 251500Z 22015KT 24/18 A3003 RMK A01 T02380179  RH  069%=      5-min Rain = 0
KTAS 251501Z 22016KT 24/18 A3003 RMK A01 T02390178  RH  069%=      5-min Rain = 0
KTAS 251502Z 22012KT 24/18 A3003 RMK A01 T02380179  RH  070%=      5-min Rain = 0
KTAS 251503Z 22013KT 24/18 A3003 RMK A01 T02390180  RH  069%=      5-min Rain = 0
KTAS 251504Z 22014KT 24/18 A3003 RMK A01 T02390179  RH  069%=      5-min Rain = 0
KTAS 251505Z 22015KT 24/18 A3003 RMK A01 T02390180  RH  069%=      5-min Rain = 0
KTAS 251506Z 23013KT 24/18 A3003 RMK A01 T02390181  RH  070%=      5-min Rain = 0
KTAS 251507Z 22012KT 24/18 A3003 RMK A01 T02410182  RH  069%=      5-min Rain = 0
KTAS 251508Z 23016KT 24/18 A3003 RMK A01 T02420181  RH  069%=      5-min Rain = 0
KTAS 251509Z 23014KT 24/18 A3003 RMK A01 T02410180  RH  069%=      5-min Rain = 0
KTAS 251510Z 23016KT 24/18 A3003 RMK A01 T02410180  RH  068%=      5-min Rain = 0
KTAS 251511Z 23013KT 24/18 A3003 RMK A01 T02410181  RH  069%=      5-min Rain = 0
KTAS 251512Z 23014KT 24/18 A3003 RMK A01 T02430181  RH  068%=      5-min Rain = 0
KTAS 251513Z 23015KT 24/18 A3003 RMK A01 T02430180  RH  068%=      5-min Rain = 0
KTAS 251514Z 23014KT 24/18 A3003 RMK A01 T02430181  RH  068%=      5-min Rain = 0
KTAS 251515Z 22013G18KT 24/18 A3003 RMK A01 T02430181  RH  068%=      5-min Rain = 0
KTAS 251516Z 21010KT 25/18 A3003 RMK A01 T02450184  RH  069%=      5-min Rain = 0
KTAS 251517Z 22011KT 25/18 A3003 RMK A01 T02470184  RH  068%=      5-min Rain = 0
KTAS 251518Z 21010KT 25/18 A3003 RMK A01 T02480184  RH  068%=      5-min Rain = 0
KTAS 251519Z 21012KT 25/19 A3003 RMK A01 T02490185  RH  068%=      5-min Rain = 0
KTAS 251520Z 21013KT 25/18 A3003 RMK A01 T02480184  RH  067%=      5-min Rain = 0
KTAS 251521Z 21014KT 25/18 A3003 RMK A01 T02490184  RH  067%=      5-min Rain = 0
KTAS 251522Z 22012G17KT 25/18 A3003 RMK A01 T02480182  RH  067%=      5-min Rain = 0
KTAS 251523Z 22014KT 25/18 A3003 RMK A01 T02480182  RH  067%=      5-min Rain = 0
KTAS 251524Z 21014KT 25/18 A3003 RMK A01 T02490182  RH  066%=      5-min Rain = 0
KTAS 251525Z 21015KT 25/18 A3003 RMK A01 T02480179  RH  066%=      5-min Rain = 0
KTAS 251526Z 21012KT 25/18 A3003 RMK A01 T02460178  RH  066%=      5-min Rain = 0
KTAS 251527Z 21014KT 25/18 A3003 RMK A01 T02470178  RH  066%=      5-min Rain = 0
KTAS 251528Z 21013KT 25/18 A3003 RMK A01 T02470179  RH  066%=      5-min Rain = 0
KTAS 251529Z 21012KT 25/18 A3003 RMK A01 T02470181  RH  067%=      5-min Rain = 0
KTAS 251530Z 21010KT 25/18 A3003 RMK A01 T02480181  RH  067%=      5-min Rain = 0
KTAS 251531Z 20012KT 25/18 A3003 RMK A01 T02490183  RH  067%=      5-min Rain = 0
KTAS 251532Z 20014KT 25/18 A3003 RMK A01 T02490181  RH  066%=      5-min Rain = 0
KTAS 251533Z 21011KT 25/18 A3003 RMK A01 T02490183  RH  066%=      5-min Rain = 0
KTAS 251534Z 21010KT 25/18 A3003 RMK A01 T02500183  RH  066%=      5-min Rain = 0
KTAS 251535Z 23012KT 25/18 A3003 RMK A01 T02520183  RH  066%=      5-min Rain = 0
KTAS 251536Z 22011KT 25/18 A3003 RMK A01 T02510182  RH  065%=      5-min Rain = 0
KTAS 251537Z 21011KT 25/18 A3003 RMK A01 T02510182  RH  066%=      5-min Rain = 0
KTAS 251538Z 20011KT 25/18 A3003 RMK A01 T02530184  RH  066%=      5-min Rain = 0
KTAS 251539Z 21009KT 25/19 A3003 RMK A01 T02540186  RH  066%=      5-min Rain = 0
KTAS 251540Z 20009KT 26/19 A3003 RMK A01 T02560186  RH  066%=      5-min Rain = 0
KTAS 251541Z 21008KT 26/19 A3003 RMK A01 T02570187  RH  065%=      5-min Rain = 0
KTAS 251542Z 21006KT 26/19 A3003 RMK A01 T02590187  RH  065%=      5-min Rain = 0
KTAS 251543Z 22006KT 26/19 A3003 RMK A01 T02610189  RH  065%=      5-min Rain = 0
KTAS 251544Z 21013KT 26/19 A3003 RMK A01 T02610185  RH  063%=      5-min Rain = 0
KTAS 251545Z 21011KT 26/18 A3003 RMK A01 T02570181  RH  063%=      5-min Rain = 0
KTAS 251546Z 20012KT 26/18 A3003 RMK A01 T02560183  RH  064%=      5-min Rain = 0
KTAS 251547Z 20012KT 26/18 A3003 RMK A01 T02550182  RH  064%=      5-min Rain = 0
KTAS 251548Z 20010KT 26/18 A3003 RMK A01 T02550182  RH  064%=      5-min Rain = 0
KTAS 251549Z 20009KT 26/18 A3003 RMK A01 T02550182  RH  064%=      5-min Rain = 0
KTAS 251550Z 20009KT 26/18 A3003 RMK A01 T02570184  RH  064%=      5-min Rain = 0
KTAS 251551Z 21010KT 26/19 A3003 RMK A01 T02590186  RH  064%=      5-min Rain = 0
KTAS 251552Z 20009KT 26/18 A3003 RMK A01 T02590184  RH  063%=      5-min Rain = 0
KTAS 251553Z 19010KT 26/19 A3003 RMK A01 T02600187  RH  064%=      5-min Rain = 0
KTAS 251554Z 19010KT 26/19 A3003 RMK A01 T02610185  RH  063%=      5-min Rain = 0
KTAS 251555Z 19011KT 26/18 A3003 RMK A01 T02610183  RH  062%=      5-min Rain = 0
KTAS 251556Z 19011KT 26/18 A3003 RMK A01 T02600182  RH  062%=      5-min Rain = 0
KTAS 251557Z 20010KT 26/18 A3003 RMK A01 T02600183  RH  063%=      5-min Rain = 0
KTAS 251558Z 21010KT 26/18 A3003 RMK A01 T02590184  RH  063%=      5-min Rain = 0
KTAS 251559Z 21011KT 26/19 A3003 RMK A01 T02580185  RH  064%=      5-min Rain = 0
KTAS 251600Z 21011KT 26/19 A3003 RMK A01 T02600185  RH  063%=      5-min Rain = 0
KTAS 251601Z 22009KT 26/19 A3003 RMK A01 T02620186  RH  063%=      5-min Rain = 0
KTAS 251602Z 21011KT 26/19 A3003 RMK A01 T02640185  RH  062%=      5-min Rain = 0
KTAS 251603Z 21011KT 26/19 A3003 RMK A01 T02640187  RH  062%=      5-min Rain = 0
KTAS 251604Z 21010KT 27/19 A3003 RMK A01 T02650187  RH  062%=      5-min Rain = 0
KTAS 251605Z 22010KT 27/19 A3003 RMK A01 T02670185  RH  061%=      5-min Rain = 0
KTAS 251606Z 21009KT 27/19 A3003 RMK A01 T02670185  RH  061%=      5-min Rain = 0
KTAS 251607Z 22010KT 27/19 A3003 RMK A01 T02680186  RH  061%=      5-min Rain = 0
KTAS 251608Z 22012KT 27/18 A3003 RMK A01 T02690184  RH  060%=      5-min Rain = 0
KTAS 251609Z 21010KT 27/18 A3003 RMK A01 T02670180  RH  059%=      5-min Rain = 0
KTAS 251610Z 21010KT 27/18 A3003 RMK A01 T02670181  RH  059%=      5-min Rain = 0
KTAS 251611Z 19009KT 27/18 A3003 RMK A01 T02670184  RH  060%=      5-min Rain = 0
KTAS 251612Z 20010KT 27/18 A3003 RMK A01 T02690183  RH  059%=      5-min Rain = 0
KTAS 251613Z 20010KT 27/18 A3003 RMK A01 T02680183  RH  060%=      5-min Rain = 0
KTAS 251614Z 22011KT 27/19 A3003 RMK A01 T02700187  RH  060%=      5-min Rain = 0
KTAS 251615Z 21012KT 27/18 A3003 RMK A01 T02700182  RH  058%=      5-min Rain = 0
KTAS 251616Z 20012KT 27/18 A3003 RMK A01 T02680180  RH  059%=      5-min Rain = 0
KTAS 251617Z 21010KT 27/18 A3003 RMK A01 T02680183  RH  060%=      5-min Rain = 0
KTAS 251618Z 21009KT 27/19 A3003 RMK A01 T02700187  RH  060%=      5-min Rain = 0
KTAS 251619Z 19009KT 27/19 A3003 RMK A01 T02710186  RH  060%=      5-min Rain = 0
KTAS 251620Z 19011KT 27/19 A3003 RMK A01 T02730187  RH  059%=      5-min Rain = 0
KTAS 251621Z 21011KT 27/18 A3003 RMK A01 T02730184  RH  058%=      5-min Rain = 0
KTAS 251622Z 21008KT 27/19 A3003 RMK A01 T02740188  RH  059%=      5-min Rain = 0
KTAS 251623Z 19007KT 28/19 A3003 RMK A01 T02760189  RH  059%=      5-min Rain = 0
KTAS 251624Z 19010KT 28/19 A3003 RMK A01 T02790188  RH  058%=      5-min Rain = 0
KTAS 251625Z 19010KT 28/18 A3003 RMK A01 T02770183  RH  056%=      5-min Rain = 0
KTAS 251626Z 19008KT 28/19 A3003 RMK A01 T02770185  RH  058%=      5-min Rain = 0
KTAS 251627Z 19009KT 28/19 A3003 RMK A01 T02770187  RH  058%=      5-min Rain = 0
KTAS 251628Z 19010KT 28/18 A3003 RMK A01 T02770184  RH  057%=      5-min Rain = 0
KTAS 251629Z 19011KT 28/18 A3003 RMK A01 T02760184  RH  057%=      5-min Rain = 0
KTAS 251630Z 19009KT 27/18 A3003 RMK A01 T02740182  RH  057%=      5-min Rain = 0
KTAS 251631Z 20009KT 27/18 A3003 RMK A01 T02730181  RH  057%=      5-min Rain = 0
KTAS 251632Z 20009KT 27/18 A3003 RMK A01 T02730183  RH  058%=      5-min Rain = 0
KTAS 251633Z 21011KT 27/18 A3003 RMK A01 T02740183  RH  058%=      5-min Rain = 0
KTAS 251634Z 21008KT 28/19 A3003 RMK A01 T02750186  RH  058%=      5-min Rain = 0
KTAS 251635Z 20011KT 28/19 A3003 RMK A01 T02780187  RH  057%=      5-min Rain = 0
KTAS 251636Z 19013KT 28/18 A3003 RMK A01 T02790182  RH  056%=      5-min Rain = 0
KTAS 251637Z 20010KT 28/18 A3003 RMK A01 T02780181  RH  056%=      5-min Rain = 0
KTAS 251638Z 21009KT 28/18 A3003 RMK A01 T02780183  RH  056%=      5-min Rain = 0
KTAS 251639Z 20008KT 28/18 A3003 RMK A01 T02780182  RH  056%=      5-min Rain = 0
KTAS 251640Z 20009KT 28/18 A3003 RMK A01 T02790183  RH  056%=      5-min Rain = 0
KTAS 251641Z 20006KT 28/19 A3003 RMK A01 T02800186  RH  057%=      5-min Rain = 0
KTAS 251642Z 20008KT 28/18 A3003 RMK A01 T02810184  RH  056%=      5-min Rain = 0
KTAS 251643Z 22008KT 28/18 A3003 RMK A01 T02810184  RH  055%=      5-min Rain = 0
KTAS 251644Z 22008KT 28/18 A3003 RMK A01 T02810183  RH  055%=      5-min Rain = 0
KTAS 251645Z 21007KT 28/18 A3003 RMK A01 T02820183  RH  055%=      5-min Rain = 0
KTAS 251646Z 19009KT 28/19 A3003 RMK A01 T02830185  RH  055%=      5-min Rain = 0
KTAS 251647Z 19008KT 28/19 A3003 RMK A01 T02830185  RH  055%=      5-min Rain = 0
KTAS 251648Z 21006KT 29/19 A3003 RMK A01 T02850188  RH  056%=      5-min Rain = 0
KTAS 251649Z 22007KT 29/19 A3003 RMK A01 T02870186  RH  055%=      5-min Rain = 0
KTAS 251650Z 22009KT 29/18 A3003 RMK A01 T02860181  RH  053%=      5-min Rain = 0
KTAS 251651Z 22008KT 29/18 A3003 RMK A01 T02860182  RH  054%=      5-min Rain = 0
KTAS 251652Z 21007KT 29/18 A3003 RMK A01 T02860179  RH  052%=      5-min Rain = 0
KTAS 251653Z 20009KT 29/18 A3003 RMK A01 T02850181  RH  053%=      5-min Rain = 0
KTAS 251654Z 19008KT 29/18 A3003 RMK A01 T02850184  RH  054%=      5-min Rain = 0
KTAS 251655Z 20009KT 29/18 A3003 RMK A01 T02870184  RH  054%=      5-min Rain = 0
KTAS 251656Z 21006KT 29/18 A3003 RMK A01 T02850179  RH  053%=      5-min Rain = 0
KTAS 251657Z 21009KT 28/18 A3002 RMK A01 T02840182  RH  054%=      5-min Rain = 0
KTAS 251658Z 21010KT 29/18 A3002 RMK A01 T02860183  RH  054%=      5-min Rain = 0
KTAS 251659Z 21009KT 29/18 A3002 RMK A01 T02870182  RH  053%=      5-min Rain = 0
KTAS 251700Z 20008KT 29/18 A3002 RMK A01 T02860182  RH  053%=      5-min Rain = 0
KTAS 251701Z 20004KT 29/18 A3002 RMK A01 T02860180  RH  053%=      5-min Rain = 0
KTAS 251702Z 18006KT 29/19 A3002 RMK A01 T02880185  RH  054%=      5-min Rain = 0
KTAS 251703Z 18007KT 29/19 A3002 RMK A01 T02910190  RH  054%=      5-min Rain = 0
KTAS 251704Z 20006KT 29/19 A3002 RMK A01 T02910185  RH  053%=      5-min Rain = 0
KTAS 251705Z 20009KT 29/19 A3002 RMK A01 T02920185  RH  053%=      5-min Rain = 0
KTAS 251706Z 20009KT 29/18 A3002 RMK A01 T02900181  RH  052%=      5-min Rain = 0
KTAS 251707Z 20008KT 29/18 A3002 RMK A01 T02890180  RH  052%=      5-min Rain = 0
KTAS 251708Z 21008KT 29/18 A3002 RMK A01 T02890178  RH  051%=      5-min Rain = 0
KTAS 251709Z 21006KT 29/18 A3002 RMK A01 T02900183  RH  052%=      5-min Rain = 0
KTAS 251710Z 18008KT 29/18 A3002 RMK A01 T02930184  RH  052%=      5-min Rain = 0
KTAS 251711Z 19007KT 29/19 A3002 RMK A01 T02940186  RH  052%=      5-min Rain = 0
KTAS 251712Z 21007KT 30/19 A3002 RMK A01 T02950189  RH  053%=      5-min Rain = 0
KTAS 251713Z 21007KT 30/19 A3002 RMK A01 T02950186  RH  052%=      5-min Rain = 0
KTAS 251714Z 21007KT 29/19 A3002 RMK A01 T02940185  RH  052%=      5-min Rain = 0
KTAS 251715Z 22007KT 29/19 A3002 RMK A01 T02940185  RH  052%=      5-min Rain = 0
KTAS 251716Z 21005KT 29/18 A3002 RMK A01 T02930182  RH  051%=      5-min Rain = 0
KTAS 251717Z 20007KT 29/18 A3002 RMK A01 T02930184  RH  052%=      5-min Rain = 0
KTAS 251718Z 21006KT 30/19 A3002 RMK A01 T02970186  RH  051%=      5-min Rain = 0
KTAS 251719Z 19008KT 30/18 A3002 RMK A01 T02980181  RH  049%=      5-min Rain = 0
KTAS 251720Z 19007KT 30/18 A3002 RMK A01 T02970181  RH  050%=      5-min Rain = 0
KTAS 251721Z 22009KT 30/18 A3002 RMK A01 T02980180  RH  049%=      5-min Rain = 0
KTAS 251722Z 22008KT 30/18 A3002 RMK A01 T02970175  RH  048%=      5-min Rain = 0
KTAS 251723Z 22007KT 30/18 A3002 RMK A01 T02960175  RH  048%=      5-min Rain = 0
KTAS 251724Z 22007KT 30/18 A3002 RMK A01 T02970181  RH  050%=      5-min Rain = 0
KTAS 251725Z 20008KT 30/18 A3002 RMK A01 T02980182  RH  050%=      5-min Rain = 0
KTAS 251726Z 19008KT 30/18 A3002 RMK A01 T02970183  RH  050%=      5-min Rain = 0
KTAS 251727Z 20007KT 30/18 A3002 RMK A01 T02980182  RH  050%=      5-min Rain = 0
KTAS 251728Z 20007KT 30/19 A3002 RMK A01 T03000186  RH  051%=      5-min Rain = 0
KTAS 251729Z 21006KT 30/18 A3002 RMK A01 T03010179  RH  048%=      5-min Rain = 0
KTAS 251730Z 19006KT 30/18 A3002 RMK A01 T02990179  RH  049%=      5-min Rain = 0
KTAS 251731Z 20008KT 30/18 A3002 RMK A01 T02990181  RH  049%=      5-min Rain = 0
KTAS 251732Z 20007KT 30/18 A3002 RMK A01 T02990181  RH  049%=      5-min Rain = 0
KTAS 251733Z 18005KT 30/18 A3002 RMK A01 T02970176  RH  048%=      5-min Rain = 0
KTAS 251734Z 18008KT 30/18 A3002 RMK A01 T02970179  RH  049%=      5-min Rain = 0
KTAS 251735Z 20009KT 30/18 A3002 RMK A01 T02990175  RH  048%=      5-min Rain = 0
KTAS 251736Z 20006KT 30/18 A3002 RMK A01 T03000179  RH  049%=      5-min Rain = 0
KTAS 251737Z 20006KT 30/19 A3002 RMK A01 T03030185  RH  049%=      5-min Rain = 0
KTAS 251738Z 19007KT 30/18 A3002 RMK A01 T03030178  RH  047%=      5-min Rain = 0
KTAS 251739Z 18006KT 30/18 A3002 RMK A01 T03020180  RH  048%=      5-min Rain = 0
KTAS 251740Z 17005KT 31/18 A3002 RMK A01 T03050183  RH  048%=      5-min Rain = 0
KTAS 251741Z 19007KT 31/18 A3002 RMK A01 T03050182  RH  048%=      5-min Rain = 0
KTAS 251742Z 19007KT 31/18 A3001 RMK A01 T03050183  RH  048%=      5-min Rain = 0
KTAS 251743Z 16008KT 30/18 A3002 RMK A01 T03040183  RH  049%=      5-min Rain = 0
KTAS 251744Z 17005KT 30/19 A3002 RMK A01 T03040187  RH  049%=      5-min Rain = 0
KTAS 251745Z 16005KT 31/19 A3001 RMK A01 T03060188  RH  049%=      5-min Rain = 0
KTAS 251746Z 18009KT 31/18 A3001 RMK A01 T03080183  RH  048%=      5-min Rain = 0
KTAS 251747Z 18007KT 31/17 A3001 RMK A01 T03070174  RH  045%=      5-min Rain = 0
KTAS 251748Z 18008KT 31/18 A3001 RMK A01 T03070178  RH  046%=      5-min Rain = 0
KTAS 251749Z 19005KT 31/18 A3001 RMK A01 T03060176  RH  046%=      5-min Rain = 0
KTAS 251750Z 16004KT 31/18 A3001 RMK A01 T03050182  RH  048%=      5-min Rain = 0
KTAS 251751Z 17006KT 31/19 A3001 RMK A01 T03070186  RH  048%=      5-min Rain = 0
KTAS 251752Z 17005KT 31/19 A3001 RMK A01 T03090186  RH  048%=      5-min Rain = 0
KTAS 251753Z 18005KT 31/19 A3001 RMK A01 T03100185  RH  047%=      5-min Rain = 0
KTAS 251754Z 21005KT 31/18 A3001 RMK A01 T03110182  RH  046%=      5-min Rain = 0
KTAS 251755Z 18004KT 31/18 A3001 RMK A01 T03100183  RH  047%=      5-min Rain = 0
KTAS 251756Z 17004KT 31/19 A3001 RMK A01 T03100185  RH  047%=      5-min Rain = 0
KTAS 251757Z 15006KT 31/18 A3001 RMK A01 T03110180  RH  046%=      5-min Rain = 0
KTAS 251758Z 15004KT 31/18 A3001 RMK A01 T03100179  RH  046%=      5-min Rain = 0
KTAS 251759Z 16006KT 31/19 A3001 RMK A01 T03110185  RH  047%=      5-min Rain = 0
KTAS 251800Z 16007KT 31/18 A3001 RMK A01 T03130183  RH  046%=      5-min Rain = 0
KTAS 251801Z 17007KT 31/18 A3001 RMK A01 T03130177  RH  044%=      5-min Rain = 0
KTAS 251802Z 17007KT 31/18 A3001 RMK A01 T03110177  RH  045%=      5-min Rain = 0
KTAS 251803Z 16006KT 31/18 A3001 RMK A01 T03100176  RH  045%=      5-min Rain = 0
KTAS 251804Z 18004KT 31/18 A3001 RMK A01 T03110182  RH  046%=      5-min Rain = 0
KTAS 251805Z 17005KT 31/19 A3001 RMK A01 T03140185  RH  046%=      5-min Rain = 0
KTAS 251806Z 16004KT 32/18 A3001 RMK A01 T03150178  RH  044%=      5-min Rain = 0
KTAS 251807Z 17003KT 31/17 A3001 RMK A01 T03140174  RH  043%=      5-min Rain = 0
KTAS 251808Z 15006KT 31/18 A3001 RMK A01 T03140178  RH  044%=      5-min Rain = 0
KTAS 251809Z 18006KT 32/18 A3001 RMK A01 T03150176  RH  044%=      5-min Rain = 0
KTAS 251810Z 19006KT 31/17 A3001 RMK A01 T03120172  RH  043%=      5-min Rain = 0
KTAS 251811Z 17005KT 31/18 A3001 RMK A01 T03130178  RH  044%=      5-min Rain = 0
KTAS 251812Z 17004KT 31/17 A3001 RMK A01 T03140167  RH  042%=      5-min Rain = 0
KTAS 251813Z 17007KT 31/17 A3001 RMK A01 T03140173  RH  043%=      5-min Rain = 0
KTAS 251814Z 17007KT 32/18 A3001 RMK A01 T03160175  RH  043%=      5-min Rain = 0
KTAS 251815Z 17004KT 32/17 A3001 RMK A01 T03150167  RH  041%=      5-min Rain = 0
KTAS 251816Z 20004KT 31/17 A3001 RMK A01 T03140172  RH  043%=      5-min Rain = 0
KTAS 251817Z 20006KT 31/17 A3001 RMK A01 T03140169  RH  042%=      5-min Rain = 0
KTAS 251818Z 16005KT 31/18 A3001 RMK A01 T03140175  RH  043%=      5-min Rain = 0
KTAS 251819Z 15006KT 32/18 A3001 RMK A01 T03160183  RH  045%=      5-min Rain = 0
KTAS 251820Z 17007KT 32/18 A3001 RMK A01 T03170182  RH  045%=      5-min Rain = 0
KTAS 251821Z 17006KT 32/18 A3001 RMK A01 T03180177  RH  043%=      5-min Rain = 0
KTAS 251822Z 16004KT 32/18 A3001 RMK A01 T03170177  RH  043%=      5-min Rain = 0
KTAS 251823Z 17006KT 32/18 A3001 RMK A01 T03170178  RH  044%=      5-min Rain = 0
KTAS 251824Z 18004KT 32/18 A3001 RMK A01 T03170175  RH  043%=      5-min Rain = 0
KTAS 251825Z 17005KT 32/18 A3001 RMK A01 T03190177  RH  043%=      5-min Rain = 0
KTAS 251826Z 14007KT 32/18 A3001 RMK A01 T03190178  RH  043%=      5-min Rain = 0
KTAS 251827Z 14007KT 32/17 A3001 RMK A01 T03180174  RH  042%=      5-min Rain = 0
KTAS 251828Z 17008KT 32/18 A3001 RMK A01 T03160177  RH  043%=      5-min Rain = 0
KTAS 251829Z 18007KT 32/18 A3001 RMK A01 T03160180  RH  044%=      5-min Rain = 0
KTAS 251830Z 18004KT 32/18 A3001 RMK A01 T03170175  RH  043%=      5-min Rain = 0
KTAS 251831Z 18005KT 32/18 A3001 RMK A01 T03180177  RH  043%=      5-min Rain = 0
KTAS 251832Z 15007KT 32/17 A3001 RMK A01 T03180171  RH  041%=      5-min Rain = 0
KTAS 251833Z 15007KT 32/17 A3001 RMK A01 T03190169  RH  041%=      5-min Rain = 0
KTAS 251834Z 14009KT 32/17 A3001 RMK A01 T03200169  RH  040%=      5-min Rain = 0
KTAS 251835Z 15009KT 32/17 A3001 RMK A01 T03200165  RH  040%=      5-min Rain = 0
KTAS 251836Z 16007KT 32/17 A3001 RMK A01 T03190168  RH  040%=      5-min Rain = 0
KTAS 251837Z 15006KT 32/17 A3001 RMK A01 T03210173  RH  041%=      5-min Rain = 0
KTAS 251838Z 15007KT 32/16 A3001 RMK A01 T03230157  RH  037%=      5-min Rain = 0
KTAS 251839Z 16006KT 32/16 A3001 RMK A01 T03240164  RH  038%=      5-min Rain = 0
KTAS 251840Z 17009KT 33/16 A3001 RMK A01 T03250164  RH  038%=      5-min Rain = 0
KTAS 251841Z 17008KT 33/16 A3001 RMK A01 T03250163  RH  038%=      5-min Rain = 0
KTAS 251842Z 16006KT 33/16 A3001 RMK A01 T03260164  RH  038%=      5-min Rain = 0
KTAS 251843Z 15005KT 33/16 A3001 RMK A01 T03270159  RH  037%=      5-min Rain = 0
KTAS 251844Z 15004KT 33/16 A3001 RMK A01 T03260163  RH  038%=      5-min Rain = 0
KTAS 251845Z 15006KT 33/16 A3001 RMK A01 T03270163  RH  037%=      5-min Rain = 0
KTAS 251846Z 15007KT 33/17 A3001 RMK A01 T03270166  RH  038%=      5-min Rain = 0
KTAS 251847Z 17006KT 33/17 A3001 RMK A01 T03270167  RH  038%=      5-min Rain = 0
KTAS 251848Z 18003KT 33/16 A3001 RMK A01 T03280161  RH  037%=      5-min Rain = 0
KTAS 251849Z 17002KT 33/15 A3001 RMK A01 T03270147  RH  034%=      5-min Rain = 0
KTAS 251850Z 20004KT 33/16 A3001 RMK A01 T03260155  RH  036%=      5-min Rain = 0
KTAS 251851Z 14004KT 33/16 A3001 RMK A01 T03260159  RH  037%=      5-min Rain = 0
KTAS 251852Z 16003KT 33/16 A3001 RMK A01 T03280164  RH  038%=      5-min Rain = 0
KTAS 251853Z 14004KT 33/16 A3001 RMK A01 T03290156  RH  035%=      5-min Rain = 0
KTAS 251854Z 13002KT 33/15 A3001 RMK A01 T03300146  RH  033%=      5-min Rain = 0
KTAS 251855Z 20005KT 33/15 A3001 RMK A01 T03310149  RH  033%=      5-min Rain = 0
KTAS 251856Z 16004KT 33/15 A30 RMK A01 T03280145  RH  033%=      5-min Rain = 0
KTAS 251857Z 18004KT 33/15 A30 RMK A01 T03280149  RH  034%=      5-min Rain = 0
KTAS 251858Z 17008KT 33/15 A30 RMK A01 T03290153  RH  035%=      5-min Rain = 0
KTAS 251859Z 17008KT 33/15 A30 RMK A01 T03310150  RH  034%=      5-min Rain = 0
KTAS 251900Z 17009KT 33/15 A30 RMK A01 T03320153  RH  034%=      5-min Rain = 0
KTAS 251901Z 18007KT 33/15 A30 RMK A01 T03330146  RH  032%=      5-min Rain = 0
KTAS 251902Z 16007KT 33/15 A30 RMK A01 T03330149  RH  033%=      5-min Rain = 0
KTAS 251903Z 18006KT 33/15 A30 RMK A01 T03330153  RH  034%=      5-min Rain = 0
KTAS 251904Z 17008KT 34/15 A30 RMK A01 T03350153  RH  034%=      5-min Rain = 0
KTAS 251905Z 14009KT 34/15 A30 RMK A01 T03360153  RH  033%=      5-min Rain = 0
KTAS 251906Z 14009KT 34/14 A30 RMK A01 T03370136  RH  030%=      5-min Rain = 0
KTAS 251907Z 14010KT 34/13 A30 RMK A01 T03370129  RH  029%=      5-min Rain = 0
KTAS 251908Z 13011KT 34/14 A30 RMK A01 T03360139  RH  031%=      5-min Rain = 0
KTAS 251909Z 12010KT 34/15 A30 RMK A01 T03380150  RH  032%=      5-min Rain = 0
KTAS 251910Z 13008KT 34/14 A30 RMK A01 T03380139  RH  030%=      5-min Rain = 0
KTAS 251911Z 14010KT 34/14 A30 RMK A01 T03370143  RH  031%=      5-min Rain = 0
KTAS 251912Z 15009G14KT 34/14 A30 RMK A01 T03380143  RH  031%=      5-min Rain = 0
KTAS 251913Z 16013KT 34/15 A30 RMK A01 T03400145  RH  031%=      5-min Rain = 0
KTAS 251914Z 15013KT 34/14 A30 RMK A01 T03400135  RH  029%=      5-min Rain = 0
KTAS 251915Z 16012KT 34/14 A30 RMK A01 T03390137  RH  030%=      5-min Rain = 0
KTAS 251916Z 16013KT 34/14 A30 RMK A01 T03390141  RH  030%=      5-min Rain = 0
KTAS 251917Z 16010KT 34/14 A30 RMK A01 T03380137  RH  030%=      5-min Rain = 0
KTAS 251918Z 16009KT 34/14 A30 RMK A01 T03380141  RH  031%=      5-min Rain = 0
KTAS 251919Z 14005KT 34/14 A30 RMK A01 T03360140  RH  031%=      5-min Rain = 0
KTAS 251920Z 15006KT 34/15 A30 RMK A01 T03360148  RH  032%=      5-min Rain = 0
KTAS 251921Z 15004KT 34/15 A30 RMK A01 T03360148  RH  032%=      5-min Rain = 0
KTAS 251922Z 15007KT 34/16 A30 RMK A01 T03370155  RH  034%=      5-min Rain = 0
KTAS 251923Z 14008KT 34/16 A30 RMK A01 T03370156  RH  034%=      5-min Rain = 0
KTAS 251924Z 14011G18KT 34/17 A30 RMK A01 T03360165  RH  036%=      5-min Rain = 0
KTAS 251925Z 16014KT 34/16 A30 RMK A01 T03370158  RH  034%=      5-min Rain = 0
KTAS 251926Z 16013KT 34/16 A30 RMK A01 T03370160  RH  035%=      5-min Rain = 0
KTAS 251927Z 16009KT 34/16 A30 RMK A01 T03360157  RH  034%=      5-min Rain = 0
KTAS 251928Z 18009KT 34/16 A30 RMK A01 T03360157  RH  034%=      5-min Rain = 0
KTAS 251929Z 17005KT 34/15 A30 RMK A01 T03350152  RH  033%=      5-min Rain = 0
KTAS 251930Z 18005KT 33/15 A2999 RMK A01 T03340151  RH  033%=      5-min Rain = 0
KTAS 251931Z 16009KT 34/16 A30 RMK A01 T03350162  RH  036%=      5-min Rain = 0
KTAS 251932Z 16012KT 34/16 A30 RMK A01 T03370162  RH  035%=      5-min Rain = 0
KTAS 251933Z 16008KT 34/16 A30 RMK A01 T03370163  RH  035%=      5-min Rain = 0
KTAS 251934Z 16009KT 34/16 A30 RMK A01 T03380164  RH  036%=      5-min Rain = 0
KTAS 251935Z 16007KT 34/15 A30 RMK A01 T03370151  RH  033%=      5-min Rain = 0
KTAS 251936Z 16009KT 34/16 A30 RMK A01 T03360158  RH  034%=      5-min Rain = 0
KTAS 251937Z 15008KT 34/16 A30 RMK A01 T03360155  RH  034%=      5-min Rain = 0
KTAS 251938Z 15011KT 34/15 A30 RMK A01 T03350152  RH  033%=      5-min Rain = 0
KTAS 251939Z 17012KT 34/15 A30 RMK A01 T03350154  RH  034%=      5-min Rain = 0
KTAS 251940Z 16007KT 33/15 A30 RMK A01 T03330146  RH  033%=      5-min Rain = 0
KTAS 251941Z 15007G12KT 33/15 A30 RMK A01 T03340154  RH  034%=      5-min Rain = 0
KTAS 251942Z 15014KT 34/16 A30 RMK A01 T03360157  RH  034%=      5-min Rain = 0
KTAS 251943Z 14010KT 34/15 A30 RMK A01 T03360152  RH  033%=      5-min Rain = 0
KTAS 251944Z 14007KT 34/15 A30 RMK A01 T03360153  RH  033%=      5-min Rain = 0
KTAS 251945Z 14008KT 34/15 A2999 RMK A01 T03370151  RH  033%=      5-min Rain = 0
KTAS 251946Z 13010KT 34/15 A2999 RMK A01 T03360150  RH  033%=      5-min Rain = 0
KTAS 251947Z 12008KT 34/15 A2999 RMK A01 T03360149  RH  033%=      5-min Rain = 0
KTAS 251948Z 13008KT 34/15 A2999 RMK A01 T03350150  RH  033%=      5-min Rain = 0
KTAS 251949Z 13008G13KT 34/16 A2999 RMK A01 T03370160  RH  035%=      5-min Rain = 0
KTAS 251950Z 14006KT 34/16 A2999 RMK A01 T03400160  RH  034%=      5-min Rain = 0
KTAS 251951Z 16009KT 34/16 A2999 RMK A01 T03400160  RH  034%=      5-min Rain = 0
KTAS 251952Z 14007KT 34/16 A2999 RMK A01 T03410163  RH  035%=      5-min Rain = 0
KTAS 251953Z 15008KT 34/17 A2999 RMK A01 T03420166  RH  035%=      5-min Rain = 0
KTAS 251954Z 16009KT 34/16 A2999 RMK A01 T03420157  RH  033%=      5-min Rain = 0
KTAS 251955Z 14007G15KT 34/15 A2999 RMK A01 T03400153  RH  033%=      5-min Rain = 0
KTAS 251956Z 13014KT 34/16 A2999 RMK A01 T03390164  RH  035%=      5-min Rain = 0
KTAS 251957Z 13009KT 34/17 A2999 RMK A01 T03350165  RH  036%=      5-min Rain = 0
KTAS 251958Z 11010KT 33/18 A2999 RMK A01 T03340179  RH  040%=      5-min Rain = 0
KTAS 251959Z 12011G16KT 33/18 A2999 RMK A01 T03340182  RH  040%=      5-min Rain = 0
KTAS 252000Z 13012KT 33/18 A2999 RMK A01 T03330178  RH  040%=      5-min Rain = 0
KTAS 252001Z 13009G14KT 33/18 A2999 RMK A01 T03320177  RH  040%=      5-min Rain = 0
KTAS 252002Z 15008KT 34/18 A2999 RMK A01 T03350176  RH  039%=      5-min Rain = 0
KTAS 252003Z 15008KT 34/17 A2999 RMK A01 T03360173  RH  038%=      5-min Rain = 0
KTAS 252004Z 13013KT 34/17 A2999 RMK A01 T03370172  RH  038%=      5-min Rain = 0
KTAS 252005Z 12012KT 34/17 A2999 RMK A01 T03350174  RH  038%=      5-min Rain = 0
KTAS 252006Z 12010G15KT 33/18 A2999 RMK A01 T03340175  RH  039%=      5-min Rain = 0
KTAS 252007Z 12012KT 33/17 A2999 RMK A01 T03340172  RH  038%=      5-min Rain = 0
KTAS 252008Z 12014KT 33/17 A2999 RMK A01 T03320167  RH  037%=      5-min Rain = 0
KTAS 252009Z 12014KT 33/17 A2999 RMK A01 T03310172  RH  039%=      5-min Rain = 0
KTAS 252010Z 11009KT 33/17 A2999 RMK A01 T03300174  RH  040%=      5-min Rain = 0
KTAS 252011Z 12010G19KT 33/17 A2999 RMK A01 T03290169  RH  038%=      5-min Rain = 0
KTAS 252012Z 17012KT 33/17 A2999 RMK A01 T03300172  RH  039%=      5-min Rain = 0
KTAS 252013Z 15010KT 33/16 A2999 RMK A01 T03320163  RH  036%=      5-min Rain = 0
KTAS 252014Z 16012KT 33/15 A2999 RMK A01 T03340153  RH  034%=      5-min Rain = 0
KTAS 252015Z 16013KT 33/15 A2999 RMK A01 T03330151  RH  034%=      5-min Rain = 0
KTAS 252016Z 15008KT 33/15 A2999 RMK A01 T03330149  RH  033%=      5-min Rain = 0
KTAS 252017Z 15007KT 34/15 A2999 RMK A01 T03350152  RH  033%=      5-min Rain = 0
KTAS 252018Z 16008KT 34/16 A2999 RMK A01 T03360158  RH  034%=      5-min Rain = 0
KTAS 252019Z 17012G18KT 34/16 A2999 RMK A01 T03370162  RH  035%=      5-min Rain = 0
KTAS 252020Z 17015KT 34/16 A2999 RMK A01 T03360162  RH  035%=      5-min Rain = 0
KTAS 252021Z 17009KT 33/16 A2999 RMK A01 T03330158  RH  035%=      5-min Rain = 0
KTAS 252022Z 15009KT 33/16 A2999 RMK A01 T03320159  RH  035%=      5-min Rain = 0
KTAS 252023Z 14010KT 33/17 A2999 RMK A01 T03320169  RH  038%=      5-min Rain = 0
KTAS 252024Z 15016KT 33/17 A2999 RMK A01 T03340170  RH  038%=      5-min Rain = 0
KTAS 252025Z 17013KT 33/17 A2998 RMK A01 T03330165  RH  036%=      5-min Rain = 0
KTAS 252026Z 17013KT 33/16 A2998 RMK A01 T03320162  RH  036%=      5-min Rain = 0
KTAS 252027Z 17015KT 33/16 A2999 RMK A01 T03310163  RH  037%=      5-min Rain = 0
KTAS 252028Z 16010KT 33/16 A2999 RMK A01 T03320160  RH  036%=      5-min Rain = 0
KTAS 252029Z 13012KT 33/17 A2999 RMK A01 T03340166  RH  037%=      5-min Rain = 0
KTAS 252030Z 13015G21KT 33/17 A2998 RMK A01 T03320167  RH  037%=      5-min Rain = 0
KTAS 252031Z 14010KT 33/17 A2998 RMK A01 T03300169  RH  038%=      5-min Rain = 0
KTAS 252032Z 15014KT 33/17 A2998 RMK A01 T03310171  RH  038%=      5-min Rain = 0
KTAS 252033Z 14011KT 33/17 A2999 RMK A01 T03330168  RH  037%=      5-min Rain = 0
KTAS 252034Z 16007KT 33/17 A2998 RMK A01 T03330166  RH  037%=      5-min Rain = 0
KTAS 252035Z 14007KT 33/17 A2998 RMK A01 T03330167  RH  037%=      5-min Rain = 0
KTAS 252036Z 12013KT 33/17 A2998 RMK A01 T03340172  RH  038%=      5-min Rain = 0
KTAS 252037Z 13010KT 33/17 A2998 RMK A01 T03320168  RH  037%=      5-min Rain = 0
KTAS 252038Z 14009KT 33/18 A2998 RMK A01 T03330177  RH  039%=      5-min Rain = 0
KTAS 252039Z 15008KT 34/17 A2998 RMK A01 T03350174  RH  038%=      5-min Rain = 0
KTAS 252040Z 16010KT 34/17 A2998 RMK A01 T03360174  RH  038%=      5-min Rain = 0
KTAS 252041Z 14010G16KT 34/17 A2998 RMK A01 T03370170  RH  037%=      5-min Rain = 0
KTAS 252042Z 16013KT 34/17 A2998 RMK A01 T03360166  RH  036%=      5-min Rain = 0
KTAS 252043Z 17012KT 34/17 A2998 RMK A01 T03370168  RH  037%=      5-min Rain = 0
KTAS 252044Z 17013KT 34/17 A2998 RMK A01 T03360166  RH  036%=      5-min Rain = 0
KTAS 252045Z 15014KT 33/16 A2998 RMK A01 T03340163  RH  036%=      5-min Rain = 0
KTAS 252046Z 14011KT 33/17 A2998 RMK A01 T03340166  RH  037%=      5-min Rain = 0
KTAS 252047Z 15013KT 34/17 A2998 RMK A01 T03350165  RH  036%=      5-min Rain = 0
KTAS 252048Z 14013KT 34/16 A2998 RMK A01 T03350164  RH  036%=      5-min Rain = 0
KTAS 252049Z 13011G16KT 33/16 A2998 RMK A01 T03340161  RH  036%=      5-min Rain = 0
KTAS 252050Z 15009G16KT 33/16 A2998 RMK A01 T03320158  RH  035%=      5-min Rain = 0
KTAS 252051Z 15016G22KT 33/16 A2998 RMK A01 T03310159  RH  036%=      5-min Rain = 0
KTAS 252052Z 14015KT 33/16 A2998 RMK A01 T03320164  RH  037%=      5-min Rain = 0
KTAS 252053Z 15013KT 33/16 A2998 RMK A01 T03330161  RH  036%=      5-min Rain = 0
KTAS 252054Z 15011KT 33/16 A2998 RMK A01 T03340164  RH  036%=      5-min Rain = 0
KTAS 252055Z 16010KT 34/16 A2998 RMK A01 T03350159  RH  035%=      5-min Rain = 0
KTAS 252056Z 16008KT 34/16 A2998 RMK A01 T03350164  RH  036%=      5-min Rain = 0
KTAS 252057Z 18013KT 34/16 A2998 RMK A01 T03360161  RH  035%=      5-min Rain = 0
KTAS 252058Z 16011KT 33/16 A2998 RMK A01 T03340157  RH  034%=      5-min Rain = 0
KTAS 252059Z 16010KT 34/16 A2998 RMK A01 T03350156  RH  034%=      5-min Rain = 0
KTAS 252100Z 16010KT 34/16 A2998 RMK A01 T03350160  RH  035%=      5-min Rain = 0
KTAS 252101Z 15009KT 34/17 A2998 RMK A01 T03370166  RH  036%=      5-min Rain = 0
KTAS 252102Z 14009KT 34/16 A2998 RMK A01 T03390158  RH  034%=      5-min Rain = 0
KTAS 252103Z 15010KT 34/16 A2998 RMK A01 T03390155  RH  033%=      5-min Rain = 0
KTAS 252104Z 16012G17KT 34/15 A2998 RMK A01 T03380151  RH  033%=      5-min Rain = 0
KTAS 252105Z 16013KT 34/15 A2998 RMK A01 T03350149  RH  033%=      5-min Rain = 0
KTAS 252106Z 16009KT 34/16 A2998 RMK A01 T03350157  RH  035%=      5-min Rain = 0
KTAS 252107Z 15010KT 34/16 A2998 RMK A01 T03370158  RH  034%=      5-min Rain = 0
KTAS 252108Z 16010KT 34/15 A2998 RMK A01 T03380151  RH  033%=      5-min Rain = 0
KTAS 252109Z 16010KT 34/15 A2998 RMK A01 T03360149  RH  032%=      5-min Rain = 0
KTAS 252110Z 15012KT 34/15 A2998 RMK A01 T03360151  RH  033%=      5-min Rain = 0
KTAS 252111Z 15013KT 34/15 A2998 RMK A01 T03360151  RH  033%=      5-min Rain = 0
KTAS 252112Z 16012KT 34/15 A2998 RMK A01 T03360149  RH  033%=      5-min Rain = 0
KTAS 252113Z 17011KT 34/15 A2998 RMK A01 T03350148  RH  033%=      5-min Rain = 0
KTAS 252114Z 16008KT 33/15 A2998 RMK A01 T03330146  RH  032%=      5-min Rain = 0
KTAS 252115Z 15008KT 33/15 A2997 RMK A01 T03340145  RH  032%=      5-min Rain = 0
KTAS 252116Z 14008KT 33/15 A2997 RMK A01 T03340151  RH  033%=      5-min Rain = 0
KTAS 252117Z 15008G15KT 34/16 A2997 RMK A01 T03370156  RH  034%=      5-min Rain = 0
KTAS 252118Z 15013KT 34/16 A2997 RMK A01 T03390155  RH  033%=      5-min Rain = 0
KTAS 252119Z 15013KT 34/15 A2997 RMK A01 T03370145  RH  031%=      5-min Rain = 0
KTAS 252120Z 15010KT 34/15 A2997 RMK A01 T03360146  RH  032%=      5-min Rain = 0
KTAS 252121Z 15011KT 34/15 A2997 RMK A01 T03370151  RH  033%=      5-min Rain = 0
KTAS 252122Z 16012KT 34/15 A2997 RMK A01 T03370147  RH  032%=      5-min Rain = 0
KTAS 252123Z 16013KT 34/14 A2997 RMK A01 T03360138  RH  030%=      5-min Rain = 0
KTAS 252124Z 15008KT 34/14 A2997 RMK A01 T03350141  RH  031%=      5-min Rain = 0
KTAS 252125Z 16008KT 34/14 A2997 RMK A01 T03370140  RH  031%=      5-min Rain = 0
KTAS 252126Z 15007KT 34/13 A2997 RMK A01 T03370133  RH  029%=      5-min Rain = 0
KTAS 252127Z 13010KT 34/15 A2997 RMK A01 T03380146  RH  032%=      5-min Rain = 0
KTAS 252128Z 14013KT 34/15 A2997 RMK A01 T03380152  RH  033%=      5-min Rain = 0
KTAS 252129Z 15011KT 34/15 A2997 RMK A01 T03380151  RH  033%=      5-min Rain = 0
KTAS 252130Z 16012KT 34/15 A2997 RMK A01 T03390150  RH  032%=      5-min Rain = 0
KTAS 252131Z 17010KT 34/14 A2997 RMK A01 T03390144  RH  031%=      5-min Rain = 0
KTAS 252132Z 18009KT 34/14 A2997 RMK A01 T03370138  RH  030%=      5-min Rain = 0
KTAS 252133Z 16008KT 34/15 A2997 RMK A01 T03370146  RH  032%=      5-min Rain = 0
KTAS 252134Z 15008KT 34/16 A2997 RMK A01 T03390155  RH  033%=      5-min Rain = 0
KTAS 252135Z 15013KT 34/15 A2997 RMK A01 T03410153  RH  033%=      5-min Rain = 0
KTAS 252136Z 15011KT 34/15 A2997 RMK A01 T03390148  RH  032%=      5-min Rain = 0
KTAS 252137Z 16011KT 34/15 A2997 RMK A01 T03380145  RH  031%=      5-min Rain = 0
KTAS 252138Z 16016KT 34/15 A2997 RMK A01 T03370146  RH  032%=      5-min Rain = 0
KTAS 252139Z 16013KT 34/15 A2997 RMK A01 T03360146  RH  032%=      5-min Rain = 0
KTAS 252140Z 16013KT 34/15 A2997 RMK A01 T03350146  RH  032%=      5-min Rain = 0
KTAS 252141Z 17012KT 34/15 A2997 RMK A01 T03350145  RH  032%=      5-min Rain = 0
KTAS 252142Z 16011KT 34/14 A2997 RMK A01 T03350142  RH  031%=      5-min Rain = 0
KTAS 252143Z 17012KT 34/14 A2997 RMK A01 T03350141  RH  031%=      5-min Rain = 0
KTAS 252144Z 17009KT 34/15 A2997 RMK A01 T03350146  RH  032%=      5-min Rain = 0
KTAS 252145Z 16016KT 34/14 A2996 RMK A01 T03360142  RH  031%=      5-min Rain = 0
KTAS 252146Z 15017KT 34/14 A2996 RMK A01 T03360139  RH  031%=      5-min Rain = 0
KTAS 252147Z 15016KT 34/14 A2997 RMK A01 T03360136  RH  030%=      5-min Rain = 0
KTAS 252148Z 16013KT 34/14 A2997 RMK A01 T03350136  RH  030%=      5-min Rain = 0
KTAS 252149Z 16010KT 34/14 A2996 RMK A01 T03350137  RH  030%=      5-min Rain = 0
KTAS 252150Z 17011KT 34/14 A2996 RMK A01 T03360142  RH  031%=      5-min Rain = 0
KTAS 252151Z 15008KT 34/14 A2996 RMK A01 T03360141  RH  031%=      5-min Rain = 0
KTAS 252152Z 14011KT 34/15 A2996 RMK A01 T03360146  RH  032%=      5-min Rain = 0
KTAS 252153Z 13011KT 34/15 A2996 RMK A01 T03360149  RH  033%=      5-min Rain = 0
KTAS 252154Z 12009KT 34/16 A2996 RMK A01 T03360158  RH  034%=      5-min Rain = 0
KTAS 252155Z 15009KT 34/16 A2996 RMK A01 T03370158  RH  034%=      5-min Rain = 0
KTAS 252156Z 15011KT 34/16 A2996 RMK A01 T03380155  RH  033%=      5-min Rain = 0
KTAS 252157Z 17009KT 34/15 A2996 RMK A01 T03390151  RH  033%=      5-min Rain = 0
KTAS 252158Z 16011KT 34/15 A2996 RMK A01 T03390149  RH  032%=      5-min Rain = 0
KTAS 252159Z 16014KT 34/15 A2996 RMK A01 T03390152  RH  033%=      5-min Rain = 0
KTAS 252200Z 16016KT 34/15 A2996 RMK A01 T03380147  RH  032%=      5-min Rain = 0
KTAS 252201Z 17011KT 34/14 A2996 RMK A01 T03350143  RH  031%=      5-min Rain = 0
KTAS 252202Z 17010KT 34/14 A2996 RMK A01 T03350144  RH  032%=      5-min Rain = 0
KTAS 252203Z 15009KT 34/14 A2996 RMK A01 T03350144  RH  032%=      5-min Rain = 0
KTAS 252204Z 12013KT 34/15 A2996 RMK A01 T03350149  RH  033%=      5-min Rain = 0
KTAS 252205Z 13015KT 33/16 A2996 RMK A01 T03340156  RH  034%=      5-min Rain = 0
KTAS 252206Z 13014KT 33/17 A2996 RMK A01 T03340166  RH  037%=      5-min Rain = 0
KTAS 252207Z 13012KT 33/17 A2996 RMK A01 T03330170  RH  038%=      5-min Rain = 0
KTAS 252208Z 14013KT 33/17 A2996 RMK A01 T03330170  RH  038%=      5-min Rain = 0
KTAS 252209Z 13014G19KT 33/17 A2996 RMK A01 T03330166  RH  037%=      5-min Rain = 0
KTAS 252210Z 12018KT 33/16 A2996 RMK A01 T03310164  RH  037%=      5-min Rain = 0
KTAS 252211Z 13013KT 33/16 A2996 RMK A01 T03290164  RH  037%=      5-min Rain = 0
KTAS 252212Z 13016G22KT 33/17 A2996 RMK A01 T03290165  RH  038%=      5-min Rain = 0
KTAS 252213Z 12020KT 33/17 A2996 RMK A01 T03280166  RH  038%=      5-min Rain = 0
KTAS 252214Z 13018KT 33/17 A2996 RMK A01 T03270166  RH  038%=      5-min Rain = 0
KTAS 252215Z 13014G19KT 33/17 A2996 RMK A01 T03280169  RH  039%=      5-min Rain = 0
KTAS 252216Z 12016KT 33/17 A2996 RMK A01 T03290168  RH  038%=      5-min Rain = 0
KTAS 252217Z 12016G21KT 33/17 A2996 RMK A01 T03270166  RH  038%=      5-min Rain = 0
KTAS 252218Z 13019KT 33/17 A2996 RMK A01 T03260165  RH  038%=      5-min Rain = 0
KTAS 252219Z 14014KT 33/17 A2996 RMK A01 T03270168  RH  039%=      5-min Rain = 0
KTAS 252220Z 13015KT 33/17 A2996 RMK A01 T03300171  RH  039%=      5-min Rain = 0
KTAS 252221Z 12016KT 33/17 A2995 RMK A01 T03290170  RH  039%=      5-min Rain = 0
KTAS 252222Z 13017KT 33/17 A2995 RMK A01 T03270168  RH  039%=      5-min Rain = 0
KTAS 252223Z 13012G18KT 33/17 A2995 RMK A01 T03270169  RH  039%=      5-min Rain = 0
KTAS 252224Z 14014G20KT 33/17 A2995 RMK A01 T03290173  RH  039%=      5-min Rain = 0
KTAS 252225Z 14015G20KT 33/17 A2995 RMK A01 T03300168  RH  038%=      5-min Rain = 0
KTAS 252226Z 14012KT 33/17 A2995 RMK A01 T03290171  RH  039%=      5-min Rain = 0
KTAS 252227Z 12014KT 33/17 A2995 RMK A01 T03290174  RH  040%=      5-min Rain = 0
KTAS 252228Z 12018KT 33/17 A2995 RMK A01 T03270170  RH  039%=      5-min Rain = 0
KTAS 252229Z 15015KT 33/17 A2995 RMK A01 T03260168  RH  039%=      5-min Rain = 0
KTAS 252230Z 14015KT 33/17 A2995 RMK A01 T03270165  RH  038%=      5-min Rain = 0
KTAS 252231Z 14015KT 33/17 A2995 RMK A01 T03270166  RH  038%=      5-min Rain = 0
KTAS 252232Z 14013KT 33/17 A2995 RMK A01 T03270168  RH  039%=      5-min Rain = 0
KTAS 252233Z 14016KT 33/17 A2995 RMK A01 T03280172  RH  039%=      5-min Rain = 0
KTAS 252234Z 14019KT 33/17 A2995 RMK A01 T03280169  RH  039%=      5-min Rain = 0
KTAS 252235Z 14013G18KT 33/17 A2995 RMK A01 T03260170  RH  039%=      5-min Rain = 0
KTAS 252236Z 12010KT 33/17 A2995 RMK A01 T03250173  RH  040%=      5-min Rain = 0
KTAS 252237Z 12015G20KT 33/18 A2995 RMK A01 T03260175  RH  041%=      5-min Rain = 0
KTAS 252238Z 13015KT 33/17 A2995 RMK A01 T03260172  RH  040%=      5-min Rain = 0
KTAS 252239Z 13014KT 33/17 A2995 RMK A01 T03260173  RH  040%=      5-min Rain = 0
KTAS 252240Z 13013KT 33/17 A2995 RMK A01 T03270172  RH  040%=      5-min Rain = 0
KTAS 252241Z 12013G20KT 33/17 A2995 RMK A01 T03270173  RH  040%=      5-min Rain = 0
KTAS 252242Z 12015G20KT 33/18 A2995 RMK A01 T03260176  RH  041%=      5-min Rain = 0
KTAS 252243Z 13017KT 33/17 A2995 RMK A01 T03260172  RH  040%=      5-min Rain = 0
KTAS 252244Z 13017G22KT 33/17 A2995 RMK A01 T03250170  RH  039%=      5-min Rain = 0
KTAS 252245Z 13015KT 32/17 A2995 RMK A01 T03240169  RH  040%=      5-min Rain = 0
KTAS 252246Z 13018KT 32/17 A2995 RMK A01 T03240168  RH  039%=      5-min Rain = 0
KTAS 252247Z 13018KT 32/17 A2995 RMK A01 T03240167  RH  039%=      5-min Rain = 0
KTAS 252248Z 14015KT 32/17 A2995 RMK A01 T03240171  RH  040%=      5-min Rain = 0
KTAS 252249Z 14016KT 32/17 A2995 RMK A01 T03240168  RH  039%=      5-min Rain = 0
KTAS 252250Z 13015KT 32/17 A2995 RMK A01 T03240171  RH  040%=      5-min Rain = 0
KTAS 252251Z 13012KT 32/17 A2995 RMK A01 T03240171  RH  040%=      5-min Rain = 0
KTAS 252252Z 14013KT 33/17 A2995 RMK A01 T03250173  RH  040%=      5-min Rain = 0
KTAS 252253Z 14015KT 33/17 A2995 RMK A01 T03260174  RH  040%=      5-min Rain = 0
KTAS 252254Z 12015G20KT 33/17 A2995 RMK A01 T03250171  RH  040%=      5-min Rain = 0
KTAS 252255Z 13017KT 32/17 A2995 RMK A01 T03240172  RH  040%=      5-min Rain = 0
KTAS 252256Z 14016KT 32/17 A2995 RMK A01 T03240172  RH  040%=      5-min Rain = 0
KTAS 252257Z 13015KT 33/17 A2995 RMK A01 T03250170  RH  039%=      5-min Rain = 0
KTAS 252258Z 13018KT 32/17 A2995 RMK A01 T03240166  RH  039%=      5-min Rain = 0
KTAS 252259Z 13018G24KT 32/17 A2995 RMK A01 T03230168  RH  040%=      5-min Rain = 0
KTAS 252300Z 13017KT 32/17 A2995 RMK A01 T03230167  RH  039%=      5-min Rain = 0
KTAS 252301Z 14017KT 32/17 A2995 RMK A01 T03230167  RH  039%=      5-min Rain = 0
KTAS 252302Z 14018KT 32/16 A2995 RMK A01 T03230164  RH  038%=      5-min Rain = 0
KTAS 252303Z 13017KT 32/17 A2995 RMK A01 T03220170  RH  040%=      5-min Rain = 0
KTAS 252304Z 12017KT 32/17 A2995 RMK A01 T03210169  RH  040%=      5-min Rain = 0
KTAS 252305Z 13019KT 32/17 A2995 RMK A01 T03200168  RH  040%=      5-min Rain = 0
KTAS 252306Z 13015KT 32/17 A2995 RMK A01 T03200169  RH  040%=      5-min Rain = 0
KTAS 252307Z 12015KT 32/17 A2995 RMK A01 T03200169  RH  040%=      5-min Rain = 0
KTAS 252308Z 13017KT 32/17 A2995 RMK A01 T03210172  RH  041%=      5-min Rain = 0
KTAS 252309Z 14017KT 32/17 A2995 RMK A01 T03220168  RH  040%=      5-min Rain = 0
KTAS 252310Z 13014KT 32/17 A2995 RMK A01 T03230170  RH  040%=      5-min Rain = 0
KTAS 252311Z 13011KT 32/17 A2995 RMK A01 T03240171  RH  040%=      5-min Rain = 0
KTAS 252312Z 14017G23KT 32/17 A2995 RMK A01 T03240169  RH  040%=      5-min Rain = 0
KTAS 252313Z 13016KT 32/17 A2995 RMK A01 T03220166  RH  039%=      5-min Rain = 0
KTAS 252314Z 12015G20KT 32/17 A2995 RMK A01 T03210167  RH  040%=      5-min Rain = 0
KTAS 252315Z 13017KT 32/17 A2994 RMK A01 T03210170  RH  040%=      5-min Rain = 0
KTAS 252316Z 14018KT 32/17 A2994 RMK A01 T03200168  RH  040%=      5-min Rain = 0
KTAS 252317Z 14018KT 32/17 A2994 RMK A01 T03200167  RH  040%=      5-min Rain = 0
KTAS 252318Z 14016KT 32/17 A2994 RMK A01 T03200167  RH  040%=      5-min Rain = 0
KTAS 252319Z 14015KT 32/17 A2994 RMK A01 T03200168  RH  040%=      5-min Rain = 0
KTAS 252320Z 13014KT 32/17 A2994 RMK A01 T03210171  RH  041%=      5-min Rain = 0
KTAS 252321Z 13013KT 32/17 A2994 RMK A01 T03210173  RH  041%=      5-min Rain = 0
KTAS 252322Z 14019KT 32/17 A2994 RMK A01 T03210171  RH  041%=      5-min Rain = 0
KTAS 252323Z 13019KT 32/17 A2994 RMK A01 T03190169  RH  041%=      5-min Rain = 0
KTAS 252324Z 13019KT 32/17 A2994 RMK A01 T03170168  RH  041%=      5-min Rain = 0
KTAS 252325Z 13018KT 32/17 A2994 RMK A01 T03170168  RH  041%=      5-min Rain = 0
KTAS 252326Z 13018KT 32/17 A2994 RMK A01 T03170169  RH  041%=      5-min Rain = 0
KTAS 252327Z 13017KT 32/17 A2994 RMK A01 T03170168  RH  041%=      5-min Rain = 0
KTAS 252328Z 13018G23KT 32/17 A2994 RMK A01 T03170170  RH  041%=      5-min Rain = 0
KTAS 252329Z 13018KT 32/17 A2994 RMK A01 T03170168  RH  041%=      5-min Rain = 0
KTAS 252330Z 12015G21KT 32/17 A2994 RMK A01 T03170170  RH  041%=      5-min Rain = 0
KTAS 252331Z 13018G24KT 32/17 A2994 RMK A01 T03170169  RH  041%=      5-min Rain = 0
KTAS 252332Z 13016KT 32/17 A2994 RMK A01 T03170171  RH  042%=      5-min Rain = 0
KTAS 252333Z 13016KT 32/17 A2994 RMK A01 T03170172  RH  042%=      5-min Rain = 0
KTAS 252334Z 13016KT 32/17 A2994 RMK A01 T03160172  RH  042%=      5-min Rain = 0
KTAS 252335Z 13014KT 32/17 A2994 RMK A01 T03160174  RH  043%=      5-min Rain = 0
KTAS 252336Z 13019KT 32/17 A2994 RMK A01 T03160171  RH  042%=      5-min Rain = 0
KTAS 252337Z 13019KT 32/17 A2994 RMK A01 T03150169  RH  042%=      5-min Rain = 0
KTAS 252338Z 12018G24KT 32/17 A2994 RMK A01 T03150171  RH  042%=      5-min Rain = 0
KTAS 252339Z 13018KT 31/17 A2994 RMK A01 T03140171  RH  042%=      5-min Rain = 0
KTAS 252340Z 14016KT 32/17 A2994 RMK A01 T03150173  RH  043%=      5-min Rain = 0
KTAS 252341Z 13015KT 32/17 A2994 RMK A01 T03150173  RH  043%=      5-min Rain = 0
KTAS 252342Z 13016KT 32/17 A2994 RMK A01 T03150173  RH  043%=      5-min Rain = 0
KTAS 252343Z 13018KT 32/17 A2994 RMK A01 T03150172  RH  042%=      5-min Rain = 0
KTAS 252344Z 14013KT 32/17 A2994 RMK A01 T03150173  RH  043%=      5-min Rain = 0
KTAS 252345Z 14016KT 32/17 A2994 RMK A01 T03150173  RH  042%=      5-min Rain = 0
KTAS 252346Z 15018KT 32/17 A2993 RMK A01 T03150169  RH  041%=      5-min Rain = 0
KTAS 252347Z 14014KT 32/17 A2993 RMK A01 T03150167  RH  041%=      5-min Rain = 0
KTAS 252348Z 13014KT 32/17 A2993 RMK A01 T03160172  RH  042%=      5-min Rain = 0
KTAS 252349Z 14014KT 32/17 A2993 RMK A01 T03160171  RH  042%=      5-min Rain = 0
KTAS 252350Z 15014KT 32/17 A2993 RMK A01 T03150171  RH  042%=      5-min Rain = 0
KTAS 252351Z 14014KT 32/17 A2993 RMK A01 T03150171  RH  042%=      5-min Rain = 0
KTAS 252352Z 14017G22KT 32/17 A2993 RMK A01 T03150170  RH  042%=      5-min Rain = 0
KTAS 252353Z 13017KT 32/17 A2993 RMK A01 T03150169  RH  042%=      5-min Rain = 0
KTAS 252354Z 13016KT 31/17 A2993 RMK A01 T03140169  RH  042%=      5-min Rain = 0
KTAS 252355Z 13016KT 31/17 A2993 RMK A01 T03140168  RH  042%=      5-min Rain = 0
KTAS 252356Z 13017KT 31/17 A2993 RMK A01 T03140168  RH  042%=      5-min Rain = 0
KTAS 252357Z 13017KT 31/17 A2993 RMK A01 T03140168  RH  042%=      5-min Rain = 0
KTAS 252358Z 13018KT 31/17 A2993 RMK A01 T03130168  RH  042%=      5-min Rain = 0
KTAS 252359Z 13018G24KT 31/17 A2993 RMK A01 T03130166  RH  041%=      5-min Rain = 0
KTAS 260000Z 13020KT 31/17 A2993 RMK A01 T03130165  RH  041%=      5-min Rain = 0
KTAS 260001Z 14015KT 31/17 A2993 RMK A01 T03140167  RH  041%=      5-min Rain = 0
KTAS 260002Z 13016KT 31/17 A2993 RMK A01 T03140169  RH  042%=      5-min Rain = 0
KTAS 260003Z 14018KT 31/17 A2993 RMK A01 T03140165  RH  041%=      5-min Rain = 0
KTAS 260004Z 14017KT 31/16 A2993 RMK A01 T03140162  RH  040%=      5-min Rain = 0
KTAS 260005Z 14013KT 31/16 A2993 RMK A01 T03140163  RH  040%=      5-min Rain = 0
KTAS 260006Z 14015G21KT 32/17 A2993 RMK A01 T03150165  RH  041%=      5-min Rain = 0
KTAS 260007Z 13015G20KT 32/17 A2993 RMK A01 T03150165  RH  041%=      5-min Rain = 0
KTAS 260008Z 14016G21KT 31/16 A2993 RMK A01 T03140164  RH  040%=      5-min Rain = 0
KTAS 260009Z 14016KT 31/16 A2993 RMK A01 T03140163  RH  040%=      5-min Rain = 0
KTAS 260010Z 14017KT 31/16 A2993 RMK A01 T03140164  RH  041%=      5-min Rain = 0
KTAS 260011Z 14019KT 31/16 A2993 RMK A01 T03130164  RH  041%=      5-min Rain = 0
KTAS 260012Z 14016KT 31/16 A2993 RMK A01 T03130164  RH  041%=      5-min Rain = 0
KTAS 260013Z 14015KT 31/17 A2993 RMK A01 T03130165  RH  041%=      5-min Rain = 0
KTAS 260014Z 15013KT 31/16 A2993 RMK A01 T03130162  RH  040%=      5-min Rain = 0
KTAS 260015Z 15014G20KT 31/16 A2993 RMK A01 T03140164  RH  041%=      5-min Rain = 0
KTAS 260016Z 15015KT 31/16 A2993 RMK A01 T03140163  RH  040%=      5-min Rain = 0
KTAS 260017Z 16018KT 31/16 A2993 RMK A01 T03140164  RH  040%=      5-min Rain = 0
KTAS 260018Z 15017G22KT 31/16 A2993 RMK A01 T03130163  RH  041%=      5-min Rain = 0
KTAS 260019Z 14015KT 31/16 A2993 RMK A01 T03120164  RH  041%=      5-min Rain = 0
KTAS 260020Z 14015G20KT 31/17 A2993 RMK A01 T03120165  RH  041%=      5-min Rain = 0
KTAS 260021Z 14017KT 31/16 A2993 RMK A01 T03120163  RH  041%=      5-min Rain = 0
KTAS 260022Z 15017KT 31/16 A2993 RMK A01 T03120163  RH  041%=      5-min Rain = 0
KTAS 260023Z 15018KT 31/17 A2994 RMK A01 T03120165  RH  041%=      5-min Rain = 0
KTAS 260024Z 15016KT 31/16 A2993 RMK A01 T03110164  RH  041%=      5-min Rain = 0
KTAS 260025Z 14014KT 31/16 A2993 RMK A01 T03110164  RH  041%=      5-min Rain = 0
KTAS 260026Z 14013KT 31/17 A2993 RMK A01 T03110166  RH  042%=      5-min Rain = 0
KTAS 260027Z 15013KT 31/17 A2993 RMK A01 T03110167  RH  042%=      5-min Rain = 0
KTAS 260028Z 15016G22KT 31/17 A2993 RMK A01 T03110167  RH  042%=      5-min Rain = 0
KTAS 260029Z 15019KT 31/16 A2993 RMK A01 T03100164  RH  041%=      5-min Rain = 0
KTAS 260030Z 15018KT 31/16 A2993 RMK A01 T03100164  RH  041%=      5-min Rain = 0
KTAS 260031Z 15018KT 31/16 A2994 RMK A01 T03100163  RH  041%=      5-min Rain = 0
KTAS 260032Z 14019KT 31/17 A2994 RMK A01 T03090165  RH  042%=      5-min Rain = 0
KTAS 260033Z 13017KT 31/16 A2994 RMK A01 T03090164  RH  042%=      5-min Rain = 0
KTAS 260034Z 14016KT 31/17 A2994 RMK A01 T03080166  RH  042%=      5-min Rain = 0
KTAS 260035Z 14016G23KT 31/17 A2994 RMK A01 T03080166  RH  043%=      5-min Rain = 0
KTAS 260036Z 14018G23KT 31/16 A2994 RMK A01 T03080164  RH  042%=      5-min Rain = 0
KTAS 260037Z 14019KT 31/16 A2994 RMK A01 T03070163  RH  042%=      5-min Rain = 0
KTAS 260038Z 14015KT 31/16 A2994 RMK A01 T03070164  RH  042%=      5-min Rain = 0
KTAS 260039Z 13017G22KT 31/17 A2994 RMK A01 T03070165  RH  042%=      5-min Rain = 0
KTAS 260040Z 13018KT 31/17 A2994 RMK A01 T03060165  RH  043%=      5-min Rain = 0
KTAS 260041Z 14019KT 31/16 A2994 RMK A01 T03060164  RH  042%=      5-min Rain = 0
KTAS 260042Z 14017G23KT 31/16 A2994 RMK A01 T03060163  RH  042%=      5-min Rain = 0
KTAS 260043Z 13019G24KT 31/16 A2994 RMK A01 T03060164  RH  042%=      5-min Rain = 0
KTAS 260044Z 14016KT 31/16 A2994 RMK A01 T03060164  RH  043%=      5-min Rain = 0
KTAS 260045Z 14016KT 31/17 A2994 RMK A01 T03060165  RH  043%=      5-min Rain = 0
KTAS 260046Z 14017KT 31/17 A2994 RMK A01 T03050165  RH  043%=      5-min Rain = 0
KTAS 260047Z 13018KT 31/16 A2994 RMK A01 T03050164  RH  043%=      5-min Rain = 0
KTAS 260048Z 13018KT 31/17 A2995 RMK A01 T03050165  RH  043%=      5-min Rain = 0
KTAS 260049Z 13019KT 30/16 A2995 RMK A01 T03040164  RH  043%=      5-min Rain = 0
KTAS 260050Z 13018KT 30/17 A2995 RMK A01 T03040166  RH  043%=      5-min Rain = 0
KTAS 260051Z 13018KT 30/17 A2995 RMK A01 T03030168  RH  044%=      5-min Rain = 0
KTAS 260052Z 13017KT 30/17 A2995 RMK A01 T03020169  RH  045%=      5-min Rain = 0
KTAS 260053Z 13017KT 30/17 A2995 RMK A01 T03010169  RH  045%=      5-min Rain = 0
KTAS 260054Z 13017G24KT 30/17 A2995 RMK A01 T03010170  RH  045%=      5-min Rain = 0
KTAS 260055Z 14019G24KT 30/17 A2995 RMK A01 T03000167  RH  045%=      5-min Rain = 0
KTAS 260056Z 13017KT 30/17 A2995 RMK A01 T03000166  RH  044%=      5-min Rain = 0
KTAS 260057Z 13020KT 30/17 A2995 RMK A01 T03000166  RH  044%=      5-min Rain = 0
KTAS 260058Z 13017KT 30/17 A2995 RMK A01 T03000166  RH  044%=      5-min Rain = 0
KTAS 260059Z 13016G21KT 30/17 A2995 RMK A01 T02990167  RH  045%=      5-min Rain = 0
KTAS 260100Z 13017KT 30/17 A2995 RMK A01 T02980166  RH  045%=      5-min Rain = 0
KTAS 260101Z 13017KT 30/17 A2995 RMK A01 T02980167  RH  045%=      5-min Rain = 0
KTAS 260102Z 13014KT 30/17 A2995 RMK A01 T02980167  RH  045%=      5-min Rain = 0
KTAS 260103Z 13018G24KT 30/17 A2995 RMK A01 T02980166  RH  045%=      5-min Rain = 0
KTAS 260104Z 13017G22KT 30/17 A2995 RMK A01 T02970165  RH  045%=      5-min Rain = 0
KTAS 260105Z 13017G22KT 30/17 A2995 RMK A01 T02960165  RH  045%=      5-min Rain = 0
KTAS 260106Z 13017KT 30/17 A2995 RMK A01 T02960165  RH  045%=      5-min Rain = 0
KTAS 260107Z 13016KT 30/17 A2995 RMK A01 T02950165  RH  045%=      5-min Rain = 0
KTAS 260108Z 13018KT 30/17 A2995 RMK A01 T02950165  RH  046%=      5-min Rain = 0
KTAS 260109Z 12016KT 29/17 A2995 RMK A01 T02940165  RH  046%=      5-min Rain = 0
KTAS 260110Z 13017G22KT 29/16 A2995 RMK A01 T02930164  RH  046%=      5-min Rain = 0
KTAS 260111Z 13017G22KT 29/16 A2995 RMK A01 T02920164  RH  046%=      5-min Rain = 0
KTAS 260112Z 13016G21KT 29/16 A2995 RMK A01 T02920163  RH  046%=      5-min Rain = 0
KTAS 260113Z 13016KT 29/16 A2995 RMK A01 T02910164  RH  046%=      5-min Rain = 0
KTAS 260114Z 13016G21KT 29/16 A2996 RMK A01 T02910164  RH  046%=      5-min Rain = 0
KTAS 260115Z 13013G18KT 29/16 A2996 RMK A01 T02910164  RH  046%=      5-min Rain = 0
KTAS 260116Z 13016G21KT 29/17 A2996 RMK A01 T02900165  RH  047%=      5-min Rain = 0
KTAS 260117Z 13016KT 29/16 A2996 RMK A01 T02900163  RH  046%=      5-min Rain = 0
KTAS 260118Z 12016G22KT 29/16 A2996 RMK A01 T02900163  RH  046%=      5-min Rain = 0
KTAS 260119Z 12017KT 29/16 A2996 RMK A01 T02890164  RH  047%=      5-min Rain = 0
KTAS 260120Z 12017KT 29/16 A2996 RMK A01 T02890164  RH  047%=      5-min Rain = 0
KTAS 260121Z 13018KT 29/16 A2996 RMK A01 T02890164  RH  047%=      5-min Rain = 0
KTAS 260122Z 13013KT 29/16 A2996 RMK A01 T02880164  RH  047%=      5-min Rain = 0
KTAS 260123Z 12016KT 29/17 A2996 RMK A01 T02870165  RH  047%=      5-min Rain = 0
KTAS 260124Z 13015KT 29/16 A2996 RMK A01 T02870164  RH  047%=      5-min Rain = 0
KTAS 260125Z 12018KT 29/16 A2996 RMK A01 T02870163  RH  047%=      5-min Rain = 0
KTAS 260126Z 12017KT 29/16 A2996 RMK A01 T02870162  RH  047%=      5-min Rain = 0
KTAS 260127Z 13018KT 29/16 A2996 RMK A01 T02860162  RH  047%=      5-min Rain = 0
KTAS 260128Z 13020KT 29/16 A2996 RMK A01 T02860162  RH  047%=      5-min Rain = 0
KTAS 260129Z 12020KT 29/16 A2996 RMK A01 T02860162  RH  047%=      5-min Rain = 0
KTAS 260130Z 13019G25KT 29/16 A2996 RMK A01 T02860162  RH  047%=      5-min Rain = 0
KTAS 260131Z 13019KT 29/16 A2996 RMK A01 T02860162  RH  047%=      5-min Rain = 0
KTAS 260132Z 13018G23KT 29/16 A2996 RMK A01 T02850162  RH  047%=      5-min Rain = 0
KTAS 260133Z 13015KT 29/16 A2996 RMK A01 T02850162  RH  047%=      5-min Rain = 0
KTAS 260134Z 13016KT 29/16 A2996 RMK A01 T02850163  RH  048%=      5-min Rain = 0
KTAS 260135Z 12016KT 28/16 A2996 RMK A01 T02840163  RH  048%=      5-min Rain = 0
KTAS 260136Z 12016G21KT 28/16 A2996 RMK A01 T02830163  RH  048%=      5-min Rain = 0
KTAS 260137Z 13015G21KT 28/16 A2996 RMK A01 T02830163  RH  048%=      5-min Rain = 0
KTAS 260138Z 13017KT 28/16 A2996 RMK A01 T02830163  RH  048%=      5-min Rain = 0
KTAS 260139Z 12015KT 28/16 A2997 RMK A01 T02830164  RH  048%=      5-min Rain = 0
KTAS 260140Z 13018KT 28/16 A2997 RMK A01 T02820163  RH  049%=      5-min Rain = 0
KTAS 260141Z 12016G24KT 28/16 A2997 RMK A01 T02820163  RH  048%=      5-min Rain = 0
KTAS 260142Z 12017G23KT 28/16 A2997 RMK A01 T02810163  RH  048%=      5-min Rain = 0
KTAS 260143Z 12016KT 28/16 A2997 RMK A01 T02810163  RH  049%=      5-min Rain = 0
KTAS 260144Z 12016KT 28/16 A2997 RMK A01 T02810163  RH  049%=      5-min Rain = 0
KTAS 260145Z 13017G22KT 28/16 A2997 RMK A01 T02800164  RH  049%=      5-min Rain = 0
KTAS 260146Z 13014KT 28/16 A2997 RMK A01 T02800164  RH  049%=      5-min Rain = 0
KTAS 260147Z 12013G19KT 28/16 A2997 RMK A01 T02790164  RH  050%=      5-min Rain = 0
KTAS 260148Z 13018KT 28/16 A2997 RMK A01 T02780164  RH  050%=      5-min Rain = 0
KTAS 260149Z 12015KT 28/16 A2998 RMK A01 T02780164  RH  050%=      5-min Rain = 0
KTAS 260150Z 13016G24KT 28/17 A2998 RMK A01 T02780165  RH  050%=      5-min Rain = 0
KTAS 260151Z 12017G22KT 28/16 A2998 RMK A01 T02780164  RH  050%=      5-min Rain = 0
KTAS 260152Z 12018KT 28/16 A2998 RMK A01 T02780164  RH  050%=      5-min Rain = 0
KTAS 260153Z 12016KT 28/16 A2998 RMK A01 T02780164  RH  050%=      5-min Rain = 0
KTAS 260154Z 12015KT 28/17 A2998 RMK A01 T02770165  RH  050%=      5-min Rain = 0
KTAS 260155Z 12014KT 28/16 A2998 RMK A01 T02770164  RH  050%=      5-min Rain = 0
KTAS 260156Z 12016KT 28/17 A2998 RMK A01 T02760165  RH  051%=      5-min Rain = 0
KTAS 260157Z 12013G20KT 28/17 A2998 RMK A01 T02760165  RH  051%=      5-min Rain = 0
KTAS 260158Z 12015G21KT 28/17 A2998 RMK A01 T02760165  RH  051%=      5-min Rain = 0
KTAS 260159Z 12016KT 28/17 A2998 RMK A01 T02760166  RH  051%=      5-min Rain = 0
KTAS 260200Z 12016KT 28/17 A2998 RMK A01 T02750166  RH  051%=      5-min Rain = 0
KTAS 260201Z 12017KT 28/17 A2998 RMK A01 T02750166  RH  052%=      5-min Rain = 0
KTAS 260202Z 12017G22KT 28/17 A2998 RMK A01 T02750166  RH  051%=      5-min Rain = 0
KTAS 260203Z 12016KT 28/17 A2998 RMK A01 T02750166  RH  052%=      5-min Rain = 0
KTAS 260204Z 12017KT 28/17 A2998 RMK A01 T02750167  RH  052%=      5-min Rain = 0
KTAS 260205Z 12016KT 27/17 A2998 RMK A01 T02740166  RH  052%=      5-min Rain = 0
KTAS 260206Z 12016KT 27/17 A2998 RMK A01 T02740167  RH  052%=      5-min Rain = 0
KTAS 260207Z 13016KT 27/17 A2998 RMK A01 T02730167  RH  052%=      5-min Rain = 0
KTAS 260208Z 12016KT 27/17 A2998 RMK A01 T02730167  RH  052%=      5-min Rain = 0
KTAS 260209Z 12012KT 27/17 A2999 RMK A01 T02730167  RH  053%=      5-min Rain = 0
KTAS 260210Z 12018KT 27/17 A2999 RMK A01 T02720167  RH  053%=      5-min Rain = 0
KTAS 260211Z 12015KT 27/17 A2999 RMK A01 T02720167  RH  053%=      5-min Rain = 0
KTAS 260212Z 12013KT 27/17 A2999 RMK A01 T02720168  RH  053%=      5-min Rain = 0
KTAS 260213Z 12016G21KT 27/17 A2999 RMK A01 T02710168  RH  053%=      5-min Rain = 0
KTAS 260214Z 12015KT 27/17 A2999 RMK A01 T02710168  RH  053%=      5-min Rain = 0
KTAS 260215Z 12015KT 27/17 A2999 RMK A01 T02700168  RH  054%=      5-min Rain = 0
KTAS 260216Z 12016KT 27/17 A2999 RMK A01 T02700168  RH  054%=      5-min Rain = 0
KTAS 260217Z 12014KT 27/17 A2999 RMK A01 T02700168  RH  053%=      5-min Rain = 0
KTAS 260218Z 12014KT 27/17 A2999 RMK A01 T02700168  RH  054%=      5-min Rain = 0
KTAS 260219Z 12015KT 27/17 A2999 RMK A01 T02690168  RH  054%=      5-min Rain = 0
KTAS 260220Z 12015G20KT 27/17 A2999 RMK A01 T02690168  RH  054%=      5-min Rain = 0
KTAS 260221Z 12014KT 27/17 A2999 RMK A01 T02690168  RH  054%=      5-min Rain = 0
KTAS 260222Z 12015G20KT 27/17 A2999 RMK A01 T02690168  RH  054%=      5-min Rain = 0
KTAS 260223Z 12016KT 27/17 A2999 RMK A01 T02690168  RH  054%=      5-min Rain = 0
KTAS 260224Z 12016G21KT 27/17 A2999 RMK A01 T02690168  RH  054%=      5-min Rain = 0
KTAS 260225Z 12013KT 27/17 A2999 RMK A01 T02680168  RH  054%=      5-min Rain = 0
KTAS 260226Z 12017KT 27/17 A2999 RMK A01 T02680168  RH  054%=      5-min Rain = 0
KTAS 260227Z 12016KT 27/17 A2999 RMK A01 T02680168  RH  054%=      5-min Rain = 0
KTAS 260228Z 12016KT 27/17 A30 RMK A01 T02680168  RH  054%=      5-min Rain = 0
KTAS 260229Z 12017G22KT 27/17 A30 RMK A01 T02690168  RH  054%=      5-min Rain = 0
KTAS 260230Z 12014KT 27/17 A30 RMK A01 T02680169  RH  054%=      5-min Rain = 0
KTAS 260231Z 12016KT 27/17 A30 RMK A01 T02680168  RH  054%=      5-min Rain = 0
KTAS 260232Z 12015KT 27/17 A30 RMK A01 T02680169  RH  055%=      5-min Rain = 0
KTAS 260233Z 12013G18KT 27/17 A30 RMK A01 T02670169  RH  055%=      5-min Rain = 0
KTAS 260234Z 13014KT 27/17 A30 RMK A01 T02670169  RH  055%=      5-min Rain = 0
KTAS 260235Z 13014KT 27/17 A30 RMK A01 T02660170  RH  055%=      5-min Rain = 0
KTAS 260236Z 13016KT 27/17 A30 RMK A01 T02660169  RH  055%=      5-min Rain = 0
KTAS 260237Z 12013KT 27/17 A30 RMK A01 T02660170  RH  055%=      5-min Rain = 0
KTAS 260238Z 12012KT 27/17 A30 RMK A01 T02650170  RH  056%=      5-min Rain = 0
KTAS 260239Z 12015KT 26/17 A30 RMK A01 T02640170  RH  056%=      5-min Rain = 0
KTAS 260240Z 13015KT 26/17 A30 RMK A01 T02640170  RH  056%=      5-min Rain = 0
KTAS 260241Z 13013KT 27/17 A30 RMK A01 T02650170  RH  056%=      5-min Rain = 0
KTAS 260242Z 13015KT 27/17 A30 RMK A01 T02650171  RH  056%=      5-min Rain = 0
KTAS 260243Z 13013KT 26/17 A30 RMK A01 T02640171  RH  056%=      5-min Rain = 0
KTAS 260244Z 13014KT 26/17 A30 RMK A01 T02640171  RH  057%=      5-min Rain = 0
KTAS 260245Z 13016KT 26/17 A3001 RMK A01 T02640171  RH  057%=      5-min Rain = 0
KTAS 260246Z 13018KT 26/17 A3001 RMK A01 T02640171  RH  057%=      5-min Rain = 0
KTAS 260247Z 13015KT 27/17 A3001 RMK A01 T02650172  RH  056%=      5-min Rain = 0
KTAS 260248Z 13016KT 27/17 A3001 RMK A01 T02650172  RH  057%=      5-min Rain = 0
KTAS 260249Z 13013KT 26/17 A3001 RMK A01 T02640172  RH  057%=      5-min Rain = 0
KTAS 260250Z 13013KT 26/17 A3001 RMK A01 T02640172  RH  057%=      5-min Rain = 0
KTAS 260251Z 13014KT 26/17 A3001 RMK A01 T02630173  RH  057%=      5-min Rain = 0
KTAS 260252Z 13012KT 26/17 A3001 RMK A01 T02630173  RH  058%=      5-min Rain = 0
KTAS 260253Z 13013KT 26/17 A3001 RMK A01 T02620172  RH  058%=      5-min Rain = 0
KTAS 260254Z 13013G18KT 26/17 A3001 RMK A01 T02620172  RH  058%=      5-min Rain = 0
KTAS 260255Z 13015KT 26/17 A3001 RMK A01 T02620173  RH  058%=      5-min Rain = 0
KTAS 260256Z 13014KT 26/17 A3002 RMK A01 T02620173  RH  058%=      5-min Rain = 0
KTAS 260257Z 13014KT 26/17 A3002 RMK A01 T02620173  RH  058%=      5-min Rain = 0
KTAS 260258Z 13014KT 26/17 A3002 RMK A01 T02620173  RH  058%=      5-min Rain = 0
KTAS 260259Z 13016KT 26/17 A3002 RMK A01 T02620173  RH  058%=      5-min Rain = 0
KTAS 260300Z 13016KT 26/17 A3002 RMK A01 T02620173  RH  058%=      5-min Rain = 0
KTAS 260301Z 13014KT 26/17 A3002 RMK A01 T02620173  RH  058%=      5-min Rain = 0
KTAS 260302Z 14014KT 26/17 A3002 RMK A01 T02620173  RH  058%=      5-min Rain = 0
KTAS 260303Z 13014KT 26/17 A3002 RMK A01 T02610173  RH  058%=      5-min Rain = 0
KTAS 260304Z 14013KT 26/17 A3002 RMK A01 T02610173  RH  058%=      5-min Rain = 0
KTAS 260305Z 13014G19KT 26/17 A3002 RMK A01 T02600173  RH  059%=      5-min Rain = 0
KTAS 260306Z 14013KT 26/17 A3002 RMK A01 T02600174  RH  059%=      5-min Rain = 0
KTAS 260307Z 14014G19KT 26/17 A3002 RMK A01 T02600174  RH  059%=      5-min Rain = 0
KTAS 260308Z 14014KT 26/17 A3002 RMK A01 T02600173  RH  059%=      5-min Rain = 0
KTAS 260309Z 14013KT 26/17 A3002 RMK A01 T02600174  RH  059%=      5-min Rain = 0
KTAS 260310Z 14014G19KT 26/17 A3002 RMK A01 T02590174  RH  059%=      5-min Rain = 0
KTAS 260311Z 14015KT 26/17 A3003 RMK A01 T02590174  RH  059%=      5-min Rain = 0
KTAS 260312Z 14013KT 26/18 A3003 RMK A01 T02590175  RH  060%=      5-min Rain = 0
KTAS 260313Z 14014KT 26/18 A3003 RMK A01 T02580175  RH  060%=      5-min Rain = 0
KTAS 260314Z 13012KT 26/18 A3003 RMK A01 T02580175  RH  060%=      5-min Rain = 0
KTAS 260315Z 14012KT 26/18 A3003 RMK A01 T02580176  RH  060%=      5-min Rain = 0
KTAS 260316Z 14014KT 26/18 A3003 RMK A01 T02580176  RH  061%=      5-min Rain = 0
KTAS 260317Z 14013KT 26/18 A3003 RMK A01 T02580176  RH  061%=      5-min Rain = 0
KTAS 260318Z 13012KT 26/18 A3003 RMK A01 T02580177  RH  061%=      5-min Rain = 0
KTAS 260319Z 13013KT 26/18 A3003 RMK A01 T02570176  RH  061%=      5-min Rain = 0
KTAS 260320Z 13013KT 26/18 A3004 RMK A01 T02570177  RH  061%=      5-min Rain = 0
KTAS 260321Z 13014KT 26/18 A3004 RMK A01 T02560177  RH  061%=      5-min Rain = 0
KTAS 260322Z 13012KT 26/18 A3004 RMK A01 T02560177  RH  062%=      5-min Rain = 0
KTAS 260323Z 13013KT 26/18 A3004 RMK A01 T02560177  RH  062%=      5-min Rain = 0
KTAS 260324Z 13015KT 26/18 A3004 RMK A01 T02550177  RH  062%=      5-min Rain = 0
KTAS 260325Z 13013KT 26/18 A3004 RMK A01 T02560178  RH  062%=      5-min Rain = 0
KTAS 260326Z 13013G18KT 26/18 A3004 RMK A01 T02560178  RH  062%=      5-min Rain = 0
KTAS 260327Z 13014KT 26/18 A3005 RMK A01 T02560178  RH  062%=      5-min Rain = 0
KTAS 260328Z 13013KT 26/18 A3005 RMK A01 T02560178  RH  062%=      5-min Rain = 0
KTAS 260329Z 13011KT 26/18 A3005 RMK A01 T02550178  RH  062%=      5-min Rain = 0
KTAS 260330Z 13012KT 26/18 A3005 RMK A01 T02550179  RH  063%=      5-min Rain = 0
KTAS 260331Z 13012KT 26/18 A3005 RMK A01 T02550178  RH  063%=      5-min Rain = 0
KTAS 260332Z 13012KT 26/18 A3005 RMK A01 T02550178  RH  063%=      5-min Rain = 0
KTAS 260333Z 13012KT 26/18 A3005 RMK A01 T02550178  RH  063%=      5-min Rain = 0
KTAS 260334Z 13011KT 25/18 A3005 RMK A01 T02540178  RH  063%=      5-min Rain = 0
KTAS 260335Z 12011KT 25/18 A3006 RMK A01 T02540179  RH  063%=      5-min Rain = 0
KTAS 260336Z 13012KT 25/18 A3006 RMK A01 T02540178  RH  063%=      5-min Rain = 0
KTAS 260337Z 12012KT 25/18 A3006 RMK A01 T02540178  RH  063%=      5-min Rain = 0
KTAS 260338Z 12011KT 25/18 A3006 RMK A01 T02540179  RH  063%=      5-min Rain = 0
KTAS 260339Z 12011KT 25/18 A3006 RMK A01 T02530179  RH  063%=      5-min Rain = 0
KTAS 260340Z 12011KT 25/18 A3006 RMK A01 T02530179  RH  064%=      5-min Rain = 0
KTAS 260341Z 13013KT 25/18 A3006 RMK A01 T02520178  RH  064%=      5-min Rain = 0
KTAS 260342Z 12012KT 25/18 A3006 RMK A01 T02530178  RH  063%=      5-min Rain = 0
KTAS 260343Z 12011KT 25/18 A3006 RMK A01 T02530179  RH  064%=      5-min Rain = 0
KTAS 260344Z 13010KT 25/18 A3006 RMK A01 T02530179  RH  064%=      5-min Rain = 0
KTAS 260345Z 12012KT 25/18 A3006 RMK A01 T02520179  RH  064%=      5-min Rain = 0
KTAS 260346Z 12012KT 25/18 A3006 RMK A01 T02520179  RH  064%=      5-min Rain = 0
KTAS 260347Z 13011KT 25/18 A3006 RMK A01 T02520179  RH  064%=      5-min Rain = 0
KTAS 260348Z 12012KT 25/18 A3006 RMK A01 T02520179  RH  064%=      5-min Rain = 0
KTAS 260349Z 13012KT 25/18 A3006 RMK A01 T02520179  RH  064%=      5-min Rain = 0
KTAS 260350Z 12013KT 25/18 A3006 RMK A01 T02520179  RH  064%=      5-min Rain = 0
KTAS 260351Z 12013KT 25/18 A3006 RMK A01 T02520179  RH  064%=      5-min Rain = 0
KTAS 260352Z 12012KT 25/18 A3006 RMK A01 T02520179  RH  064%=      5-min Rain = 0
KTAS 260353Z 12011KT 25/18 A3006 RMK A01 T02520179  RH  064%=      5-min Rain = 0
KTAS 260354Z 12013KT 25/18 A3006 RMK A01 T02510179  RH  064%=      5-min Rain = 0
KTAS 260355Z 12011KT 25/18 A3006 RMK A01 T02510179  RH  064%=      5-min Rain = 0
KTAS 260356Z 12011KT 25/18 A3007 RMK A01 T02500179  RH  065%=      5-min Rain = 0
KTAS 260357Z 12011KT 25/18 A3007 RMK A01 T02500179  RH  065%=      5-min Rain = 0
KTAS 260358Z 12012KT 25/18 A3007 RMK A01 T02500179  RH  065%=      5-min Rain = 0
KTAS 260359Z 12012KT 25/18 A3007 RMK A01 T02500179  RH  065%=      5-min Rain = 0
KTAS 260400Z 11014KT 25/18 A3007 RMK A01 T02500179  RH  065%=      5-min Rain = 0
KTAS 260401Z 11013KT 25/18 A3007 RMK A01 T02500179  RH  065%=      5-min Rain = 0
KTAS 260402Z 11011KT 25/18 A3007 RMK A01 T02490179  RH  065%=      5-min Rain = 0
KTAS 260403Z 11011KT 25/18 A3007 RMK A01 T02490179  RH  065%=      5-min Rain = 0
KTAS 260404Z 11012KT 25/18 A3007 RMK A01 T02490179  RH  065%=      5-min Rain = 0
KTAS 260405Z 11011KT 25/18 A3007 RMK A01 T02490178  RH  065%=      5-min Rain = 0
KTAS 260406Z 11013KT 25/18 A3008 RMK A01 T02490179  RH  065%=      5-min Rain = 0
KTAS 260407Z 11012KT 25/18 A3008 RMK A01 T02480178  RH  065%=      5-min Rain = 0
KTAS 260408Z 11011KT 25/18 A3008 RMK A01 T02480178  RH  065%=      5-min Rain = 0
KTAS 260409Z 11012KT 25/18 A3008 RMK A01 T02490178  RH  065%=      5-min Rain = 0
KTAS 260410Z 11011KT 25/18 A3008 RMK A01 T02480179  RH  065%=      5-min Rain = 0
KTAS 260411Z 10011KT 25/18 A3008 RMK A01 T02480179  RH  065%=      5-min Rain = 0
KTAS 260412Z 11012KT 25/18 A3008 RMK A01 T02480178  RH  065%=      5-min Rain = 0
KTAS 260413Z 11011KT 25/18 A3008 RMK A01 T02480178  RH  065%=      5-min Rain = 0
KTAS 260414Z 11011KT 25/18 A3009 RMK A01 T02480179  RH  065%=      5-min Rain = 0
KTAS 260415Z 11011KT 25/18 A3009 RMK A01 T02480179  RH  065%=      5-min Rain = 0
KTAS 260416Z 11010G15KT 25/18 A3009 RMK A01 T02480179  RH  065%=      5-min Rain = 0
KTAS 260417Z 11012KT 25/18 A3009 RMK A01 T02480178  RH  065%=      5-min Rain = 0
KTAS 260418Z 11011KT 25/18 A3009 RMK A01 T02480179  RH  065%=      5-min Rain = 0
KTAS 260419Z 11010G15KT 25/18 A3009 RMK A01 T02480178  RH  065%=      5-min Rain = 0
KTAS 260420Z 11011KT 25/18 A3009 RMK A01 T02480179  RH  065%=      5-min Rain = 0
KTAS 260421Z 11010KT 25/18 A3009 RMK A01 T02490179  RH  065%=      5-min Rain = 0
KTAS 260422Z 11009KT 25/18 A3009 RMK A01 T02480179  RH  065%=      5-min Rain = 0
KTAS 260423Z 11011KT 25/18 A3009 RMK A01 T02480179  RH  065%=      5-min Rain = 0
KTAS 260424Z 11008KT 25/18 A3009 RMK A01 T02480179  RH  065%=      5-min Rain = 0
KTAS 260425Z 11009KT 25/18 A3009 RMK A01 T02470179  RH  066%=      5-min Rain = 0
KTAS 260426Z 10009KT 25/18 A3009 RMK A01 T02470179  RH  066%=      5-min Rain = 0
KTAS 260427Z 10010KT 25/18 A301 RMK A01 T02470179  RH  066%=      5-min Rain = 0
KTAS 260428Z 10011KT 25/18 A301 RMK A01 T02470179  RH  066%=      5-min Rain = 0
KTAS 260429Z 09010KT 25/18 A301 RMK A01 T02460179  RH  066%=      5-min Rain = 0
KTAS 260430Z 09010KT 25/18 A301 RMK A01 T02460179  RH  066%=      5-min Rain = 0
KTAS 260431Z 09012KT 25/18 A301 RMK A01 T02460178  RH  066%=      5-min Rain = 0
KTAS 260432Z 08011KT 25/18 A301 RMK A01 T02460179  RH  066%=      5-min Rain = 0
KTAS 260433Z 08011KT 25/18 A301 RMK A01 T02460179  RH  066%=      5-min Rain = 0
KTAS 260434Z 08010KT 25/18 A3011 RMK A01 T02460179  RH  066%=      5-min Rain = 0
KTAS 260435Z 07010KT 25/18 A3011 RMK A01 T02450179  RH  067%=      5-min Rain = 0
KTAS 260436Z 07010KT 24/18 A3011 RMK A01 T02440179  RH  067%=      5-min Rain = 0
KTAS 260437Z 07010KT 24/18 A3011 RMK A01 T02430180  RH  068%=      5-min Rain = 0
KTAS 260438Z 07011KT 24/18 A3011 RMK A01 T02430179  RH  068%=      5-min Rain = 0
KTAS 260439Z 07011KT 24/18 A3011 RMK A01 T02430179  RH  068%=      5-min Rain = 0
KTAS 260440Z 07010KT 24/18 A3011 RMK A01 T02430179  RH  068%=      5-min Rain = 0
KTAS 260441Z 07012KT 24/18 A3011 RMK A01 T02430178  RH  067%=      5-min Rain = 0
KTAS 260442Z 07012KT 24/18 A3011 RMK A01 T02430177  RH  067%=      5-min Rain = 0
KTAS 260443Z 07012KT 24/18 A3011 RMK A01 T02430177  RH  067%=      5-min Rain = 0
KTAS 260444Z 06012KT 24/18 A3011 RMK A01 T02430177  RH  067%=      5-min Rain = 0
KTAS 260445Z 06013KT 24/18 A3011 RMK A01 T02430176  RH  066%=      5-min Rain = 0
KTAS 260446Z 06010KT 24/18 A3011 RMK A01 T02430176  RH  066%=      5-min Rain = 0
KTAS 260447Z 06012KT 24/18 A3011 RMK A01 T02420176  RH  066%=      5-min Rain = 0
KTAS 260448Z 06011KT 24/18 A3011 RMK A01 T02420175  RH  066%=      5-min Rain = 0
KTAS 260449Z 06010KT 24/18 A3011 RMK A01 T02410175  RH  066%=      5-min Rain = 0
KTAS 260450Z 06013KT 24/17 A3011 RMK A01 T02410174  RH  066%=      5-min Rain = 0
KTAS 260451Z 06011KT 24/17 A3011 RMK A01 T02410174  RH  066%=      5-min Rain = 0
KTAS 260452Z 06012KT 24/17 A3011 RMK A01 T02410173  RH  066%=      5-min Rain = 0
KTAS 260453Z 06011KT 24/17 A3011 RMK A01 T02400173  RH  066%=      5-min Rain = 0
KTAS 260454Z 06013KT 24/17 A3011 RMK A01 T02390172  RH  066%=      5-min Rain = 0
KTAS 260455Z 07010KT 24/17 A3011 RMK A01 T02390171  RH  066%=      5-min Rain = 0
KTAS 260456Z 07012KT 24/17 A3011 RMK A01 T02390171  RH  066%=      5-min Rain = 0
KTAS 260457Z 07011KT 24/17 A3011 RMK A01 T02390170  RH  065%=      5-min Rain = 0
KTAS 260458Z 07012KT 24/17 A3011 RMK A01 T02390170  RH  065%=      5-min Rain = 0
KTAS 260459Z 07010KT 24/17 A3011 RMK A01 T02390170  RH  065%=      5-min Rain = 0

Page generated in 0.1333 seconds.